AUA55 LOWW-KSFO
Flight info
| Callsign | AUA55 |
|---|---|
| Flight time | 12h 1m |
| Altitude | 36000 |
| Route | LEDVA L156 SOPAV L617 REGLI DCT EPOPA L617 KOLOB DCT VEVOD DCT GEMVO DCT GUBNO DCT H7000/M084F360 DCT 73N010W DCT 7520N DCT 76N030W DCT 7640N DCT 76N050W DCT 7660N DCT GELBO/N0494F360 DCT 73N083W 69N096W DCT 65N04 DCT 62N108W 56N114W DCT 50N18 DCT EPH DCT LMT J65 RBL DCT MRRLO BDEGA4 |
| Aircraft | B772/H-SDE2E3FGHIJ5LORVWXY/LB1D1 |
Departure
| Time | 2026-04-22 12:33 |
|---|---|
| Airport | Vienna International Airport (LOWW) |
Arrival
| Time | 2026-04-23 00:35 |
|---|---|
| Airport | San Francisco International Airport (KSFO) |
| Time | Latitude | Longitude | Altitude | Speed | Heading |
|---|---|---|---|---|---|
| 2026-04-22 12:01 | 48.11674 | 16.56925 | 627 ft | 0 kts | 26° |
| 2026-04-22 12:27 | 48.11667 | 16.56920 | 628 ft | 4 kts | 27° |
| 2026-04-22 12:27 | 48.11643 | 16.56900 | 629 ft | 4 kts | 34° |
| 2026-04-22 12:28 | 48.11622 | 16.56876 | 629 ft | 4 kts | 49° |
| 2026-04-22 12:28 | 48.11609 | 16.56847 | 629 ft | 4 kts | 81° |
| 2026-04-22 12:28 | 48.11610 | 16.56824 | 629 ft | 0 kts | 116° |
| 2026-04-22 12:30 | 48.11609 | 16.56825 | 629 ft | 1 kts | 116° |
| 2026-04-22 12:30 | 48.11582 | 16.56895 | 625 ft | 10 kts | 138° |
| 2026-04-22 12:30 | 48.11502 | 16.56897 | 620 ft | 18 kts | 198° |
| 2026-04-22 12:31 | 48.11380 | 16.56835 | 629 ft | 19 kts | 167° |
| 2026-04-22 12:31 | 48.11302 | 16.56988 | 622 ft | 19 kts | 117° |
| 2026-04-22 12:31 | 48.11244 | 16.57165 | 623 ft | 19 kts | 116° |
| 2026-04-22 12:31 | 48.11188 | 16.57343 | 626 ft | 19 kts | 115° |
| 2026-04-22 12:32 | 48.11130 | 16.57521 | 625 ft | 19 kts | 116° |
| 2026-04-22 12:32 | 48.10933 | 16.57539 | 627 ft | 19 kts | 250° |
| 2026-04-22 12:32 | 48.10996 | 16.57277 | 628 ft | 52 kts | 296° |
| 2026-04-22 12:33 | 48.11267 | 16.56452 | 629 ft | 123 kts | 296° |
| 2026-04-22 12:33 | 48.11741 | 16.55016 | 641 ft | 181 kts | 301° |
| 2026-04-22 12:33 | 48.12325 | 16.53234 | 1056 ft | 203 kts | 298° |
| 2026-04-22 12:33 | 48.12671 | 16.51257 | 1956 ft | 205 kts | 271° |
| 2026-04-22 12:34 | 48.12252 | 16.49092 | 2185 ft | 227 kts | 250° |
| 2026-04-22 12:34 | 48.11622 | 16.46873 | 2598 ft | 234 kts | 257° |
| 2026-04-22 12:34 | 48.11600 | 16.44457 | 2915 ft | 235 kts | 287° |
| 2026-04-22 12:34 | 48.11991 | 16.42032 | 3292 ft | 246 kts | 285° |
| 2026-04-22 12:35 | 48.12329 | 16.39487 | 3808 ft | 252 kts | 284° |
| 2026-04-22 12:35 | 48.12532 | 16.37773 | 4219 ft | 254 kts | 283° |
| 2026-04-22 12:35 | 48.12926 | 16.34288 | 4996 ft | 257 kts | 283° |
| 2026-04-22 12:35 | 48.13211 | 16.31644 | 5624 ft | 257 kts | 282° |
| 2026-04-22 12:36 | 48.13493 | 16.28972 | 6209 ft | 260 kts | 282° |
| 2026-04-22 12:36 | 48.13777 | 16.26280 | 6788 ft | 263 kts | 282° |
| 2026-04-22 12:36 | 48.13962 | 16.24481 | 7157 ft | 265 kts | 282° |
| 2026-04-22 12:36 | 48.14415 | 16.21780 | 7467 ft | 266 kts | 302° |
| 2026-04-22 12:37 | 48.15629 | 16.19763 | 7933 ft | 261 kts | 328° |
| 2026-04-22 12:37 | 48.17201 | 16.18494 | 8400 ft | 262 kts | 336° |
| 2026-04-22 12:37 | 48.18855 | 16.17288 | 8936 ft | 265 kts | 336° |
| 2026-04-22 12:37 | 48.20527 | 16.16072 | 9523 ft | 268 kts | 336° |
| 2026-04-22 12:38 | 48.22246 | 16.15014 | 9928 ft | 268 kts | 352° |
| 2026-04-22 12:38 | 48.24111 | 16.15120 | 10211 ft | 276 kts | 17° |
| 2026-04-22 12:38 | 48.25851 | 16.16460 | 10334 ft | 289 kts | 37° |
| 2026-04-22 12:38 | 48.27420 | 16.18468 | 10455 ft | 305 kts | 40° |
| 2026-04-22 12:39 | 48.29057 | 16.20632 | 10610 ft | 322 kts | 40° |
| 2026-04-22 12:39 | 48.32597 | 16.25331 | 11096 ft | 352 kts | 40° |
| 2026-04-22 12:39 | 48.34455 | 16.27793 | 11544 ft | 360 kts | 40° |
| 2026-04-22 12:40 | 48.36347 | 16.30299 | 12189 ft | 362 kts | 40° |
| 2026-04-22 12:40 | 48.38245 | 16.32811 | 12812 ft | 365 kts | 40° |
| 2026-04-22 12:40 | 48.40159 | 16.35341 | 13435 ft | 368 kts | 40° |
| 2026-04-22 12:40 | 48.42090 | 16.37893 | 13992 ft | 372 kts | 40° |
| 2026-04-22 12:41 | 48.44017 | 16.40440 | 14516 ft | 374 kts | 40° |
| 2026-04-22 12:41 | 48.45979 | 16.43033 | 15040 ft | 376 kts | 40° |
| 2026-04-22 12:41 | 48.47955 | 16.45648 | 15586 ft | 378 kts | 40° |
| 2026-04-22 12:41 | 48.49936 | 16.48270 | 16099 ft | 380 kts | 40° |
| 2026-04-22 12:42 | 48.51927 | 16.50910 | 16594 ft | 383 kts | 41° |
| 2026-04-22 12:42 | 48.53936 | 16.53578 | 17086 ft | 385 kts | 41° |
| 2026-04-22 12:42 | 48.55948 | 16.56252 | 17544 ft | 387 kts | 41° |
| 2026-04-22 12:42 | 48.57978 | 16.58951 | 18039 ft | 389 kts | 41° |
| 2026-04-22 12:43 | 48.60015 | 16.61663 | 18492 ft | 392 kts | 41° |
| 2026-04-22 12:43 | 48.62061 | 16.64393 | 18887 ft | 394 kts | 41° |
| 2026-04-22 12:43 | 48.64123 | 16.67145 | 19267 ft | 396 kts | 41° |
| 2026-04-22 12:43 | 48.66189 | 16.69907 | 19655 ft | 398 kts | 41° |
| 2026-04-22 12:44 | 48.68266 | 16.72684 | 20024 ft | 400 kts | 41° |
| 2026-04-22 12:44 | 48.70329 | 16.75446 | 20390 ft | 401 kts | 41° |
| 2026-04-22 12:44 | 48.72426 | 16.78260 | 20750 ft | 403 kts | 41° |
| 2026-04-22 12:44 | 48.74485 | 16.81158 | 21119 ft | 405 kts | 44° |
| 2026-04-22 12:45 | 48.76473 | 16.84201 | 21467 ft | 407 kts | 45° |
| 2026-04-22 12:45 | 48.78443 | 16.87311 | 21817 ft | 409 kts | 46° |
| 2026-04-22 12:45 | 48.80421 | 16.90442 | 22164 ft | 411 kts | 46° |
| 2026-04-22 12:45 | 48.82412 | 16.93577 | 22523 ft | 413 kts | 45° |
| 2026-04-22 12:46 | 48.84398 | 16.96688 | 22853 ft | 415 kts | 45° |
| 2026-04-22 12:46 | 48.86419 | 16.99842 | 23189 ft | 417 kts | 45° |
| 2026-04-22 12:46 | 48.88451 | 17.03007 | 23526 ft | 419 kts | 45° |
| 2026-04-22 12:46 | 48.90489 | 17.06183 | 23845 ft | 421 kts | 45° |
| 2026-04-22 12:47 | 48.92538 | 17.09379 | 24114 ft | 423 kts | 45° |
| 2026-04-22 12:47 | 48.94598 | 17.12597 | 24390 ft | 424 kts | 45° |
| 2026-04-22 12:47 | 48.96656 | 17.15815 | 24670 ft | 425 kts | 45° |
| 2026-04-22 12:47 | 48.98724 | 17.19055 | 24930 ft | 427 kts | 45° |
| 2026-04-22 12:48 | 49.00842 | 17.22251 | 25174 ft | 429 kts | 41° |
| 2026-04-22 12:48 | 49.03139 | 17.25155 | 25439 ft | 430 kts | 37° |
| 2026-04-22 12:48 | 49.05623 | 17.27723 | 25688 ft | 432 kts | 32° |
| 2026-04-22 12:48 | 49.08194 | 17.30109 | 25935 ft | 434 kts | 32° |
| 2026-04-22 12:49 | 49.10782 | 17.32500 | 26188 ft | 435 kts | 32° |
| 2026-04-22 12:49 | 49.13369 | 17.34903 | 26427 ft | 437 kts | 32° |
| 2026-04-22 12:49 | 49.15971 | 17.37339 | 26661 ft | 438 kts | 32° |
| 2026-04-22 12:49 | 49.18574 | 17.39789 | 26910 ft | 440 kts | 32° |
| 2026-04-22 12:50 | 49.21153 | 17.42226 | 27147 ft | 441 kts | 32° |
| 2026-04-22 12:50 | 49.23762 | 17.44696 | 27370 ft | 442 kts | 32° |
| 2026-04-22 12:50 | 49.26389 | 17.47186 | 27622 ft | 444 kts | 32° |
| 2026-04-22 12:50 | 49.29014 | 17.49676 | 27844 ft | 445 kts | 32° |
| 2026-04-22 12:51 | 49.31647 | 17.52181 | 28050 ft | 446 kts | 33° |
| 2026-04-22 12:51 | 49.34191 | 17.54907 | 28235 ft | 447 kts | 38° |
| 2026-04-22 12:51 | 49.36665 | 17.57827 | 28449 ft | 448 kts | 38° |
| 2026-04-22 12:51 | 49.39134 | 17.60767 | 28652 ft | 449 kts | 38° |
| 2026-04-22 12:52 | 49.41599 | 17.63701 | 28831 ft | 450 kts | 38° |
| 2026-04-22 12:52 | 49.44086 | 17.66653 | 29003 ft | 451 kts | 38° |
| 2026-04-22 12:52 | 49.46574 | 17.69602 | 29177 ft | 452 kts | 38° |
| 2026-04-22 12:52 | 49.49069 | 17.72555 | 29355 ft | 453 kts | 38° |
| 2026-04-22 12:53 | 49.51570 | 17.75517 | 29522 ft | 454 kts | 38° |
| 2026-04-22 12:53 | 49.54077 | 17.78488 | 29693 ft | 454 kts | 38° |
| 2026-04-22 12:53 | 49.56554 | 17.81427 | 29841 ft | 455 kts | 39° |
| 2026-04-22 12:53 | 49.59069 | 17.84415 | 29995 ft | 456 kts | 39° |
| 2026-04-22 12:54 | 49.61584 | 17.87409 | 30126 ft | 456 kts | 39° |
| 2026-04-22 12:54 | 49.64097 | 17.90405 | 30288 ft | 456 kts | 39° |
| 2026-04-22 12:54 | 49.66626 | 17.93360 | 30381 ft | 457 kts | 36° |
| 2026-04-22 12:55 | 49.72311 | 17.97905 | 30537 ft | 462 kts | 24° |
| 2026-04-22 12:55 | 49.78534 | 18.00578 | 30688 ft | 467 kts | 14° |
| 2026-04-22 12:56 | 49.84930 | 18.02513 | 30835 ft | 468 kts | 15° |
| 2026-04-22 12:56 | 49.91393 | 18.03961 | 30938 ft | 475 kts | 3° |
| 2026-04-22 12:57 | 49.97956 | 18.02623 | 31072 ft | 485 kts | 348° |
| 2026-04-22 12:57 | 50.04343 | 17.98904 | 31149 ft | 491 kts | 343° |
| 2026-04-22 12:58 | 50.10735 | 17.95123 | 31262 ft | 491 kts | 344° |
| 2026-04-22 12:58 | 50.17158 | 17.91416 | 31356 ft | 492 kts | 345° |
| 2026-04-22 12:59 | 50.23585 | 17.87701 | 31463 ft | 493 kts | 345° |
| 2026-04-22 12:59 | 50.29981 | 17.83981 | 31540 ft | 494 kts | 345° |
| 2026-04-22 13:00 | 50.36439 | 17.80214 | 31609 ft | 495 kts | 345° |
| 2026-04-22 13:00 | 50.41796 | 17.77076 | 31668 ft | 496 kts | 345° |
| 2026-04-22 13:01 | 50.44816 | 17.75302 | 31721 ft | 495 kts | 345° |
| 2026-04-22 13:01 | 50.51279 | 17.71495 | 31829 ft | 495 kts | 345° |
| 2026-04-22 13:02 | 50.57732 | 17.67685 | 31919 ft | 495 kts | 345° |
| 2026-04-22 13:02 | 50.64186 | 17.63863 | 32026 ft | 495 kts | 344° |
| 2026-04-22 13:03 | 50.70596 | 17.60056 | 32118 ft | 495 kts | 344° |
| 2026-04-22 13:03 | 50.77045 | 17.56216 | 32236 ft | 495 kts | 344° |
| 2026-04-22 13:04 | 50.83503 | 17.52438 | 32331 ft | 494 kts | 345° |
| 2026-04-22 13:04 | 50.89960 | 17.48639 | 32414 ft | 495 kts | 344° |
| 2026-04-22 13:05 | 50.96361 | 17.44781 | 32517 ft | 495 kts | 344° |
| 2026-04-22 13:05 | 51.02799 | 17.40891 | 32588 ft | 495 kts | 344° |
| 2026-04-22 13:06 | 51.09251 | 17.36993 | 32678 ft | 495 kts | 344° |
| 2026-04-22 13:06 | 51.15695 | 17.33091 | 32749 ft | 496 kts | 344° |
| 2026-04-22 13:07 | 51.22145 | 17.29178 | 32809 ft | 496 kts | 344° |
| 2026-04-22 13:07 | 51.28604 | 17.25251 | 32915 ft | 496 kts | 344° |
| 2026-04-22 13:08 | 51.35061 | 17.21314 | 33010 ft | 496 kts | 344° |
| 2026-04-22 13:08 | 51.41477 | 17.17388 | 33113 ft | 496 kts | 344° |
| 2026-04-22 13:09 | 51.47917 | 17.13436 | 33211 ft | 496 kts | 344° |
| 2026-04-22 13:09 | 51.54356 | 17.09475 | 33378 ft | 495 kts | 344° |
| 2026-04-22 13:10 | 51.60778 | 17.05512 | 33527 ft | 493 kts | 344° |
| 2026-04-22 13:10 | 51.67186 | 17.01547 | 33715 ft | 492 kts | 344° |
| 2026-04-22 13:10 | 51.70335 | 16.99593 | 33834 ft | 491 kts | 344° |
| 2026-04-22 13:11 | 51.73517 | 16.97614 | 33953 ft | 489 kts | 344° |
| 2026-04-22 13:11 | 51.76688 | 16.95635 | 34094 ft | 488 kts | 344° |
| 2026-04-22 13:11 | 51.79853 | 16.93657 | 34242 ft | 486 kts | 344° |
| 2026-04-22 13:11 | 51.82998 | 16.91687 | 34381 ft | 484 kts | 344° |
| 2026-04-22 13:12 | 51.86138 | 16.89719 | 34504 ft | 483 kts | 344° |
| 2026-04-22 13:12 | 51.89266 | 16.87756 | 34640 ft | 481 kts | 344° |
| 2026-04-22 13:12 | 51.92389 | 16.85794 | 34822 ft | 479 kts | 344° |
| 2026-04-22 13:12 | 51.95472 | 16.83851 | 35111 ft | 473 kts | 344° |
| 2026-04-22 13:13 | 51.98526 | 16.81923 | 35419 ft | 468 kts | 343° |
| 2026-04-22 13:13 | 52.01555 | 16.80010 | 35639 ft | 465 kts | 343° |
| 2026-04-22 13:13 | 52.04573 | 16.78104 | 35787 ft | 465 kts | 343° |
| 2026-04-22 13:14 | 52.10615 | 16.74282 | 35883 ft | 467 kts | 343° |
| 2026-04-22 13:14 | 52.16650 | 16.70471 | 35974 ft | 468 kts | 344° |
| 2026-04-22 13:15 | 52.22781 | 16.66656 | 36115 ft | 469 kts | 344° |
| 2026-04-22 13:15 | 52.28863 | 16.62863 | 36195 ft | 471 kts | 344° |
| 2026-04-22 13:16 | 52.34990 | 16.59021 | 36282 ft | 472 kts | 344° |
| 2026-04-22 13:16 | 52.41129 | 16.55155 | 36375 ft | 473 kts | 344° |
| 2026-04-22 13:17 | 52.47278 | 16.51272 | 36456 ft | 474 kts | 343° |
| 2026-04-22 13:17 | 52.53449 | 16.47365 | 36538 ft | 475 kts | 343° |
| 2026-04-22 13:18 | 52.59626 | 16.43445 | 36614 ft | 476 kts | 343° |
| 2026-04-22 13:18 | 52.65780 | 16.39526 | 36686 ft | 477 kts | 343° |
| 2026-04-22 13:19 | 52.71976 | 16.35569 | 36743 ft | 478 kts | 343° |
| 2026-04-22 13:19 | 52.78187 | 16.31590 | 36788 ft | 479 kts | 343° |
| 2026-04-22 13:20 | 52.84412 | 16.27589 | 36842 ft | 479 kts | 343° |
| 2026-04-22 13:20 | 52.90638 | 16.23576 | 36886 ft | 480 kts | 343° |
| 2026-04-22 13:21 | 52.96827 | 16.19575 | 36935 ft | 481 kts | 343° |
| 2026-04-22 13:21 | 53.03070 | 16.15526 | 36967 ft | 481 kts | 343° |
| 2026-04-22 13:22 | 53.08256 | 16.12152 | 37024 ft | 481 kts | 343° |
| 2026-04-22 13:22 | 53.14506 | 16.08075 | 37058 ft | 482 kts | 343° |
| 2026-04-22 13:23 | 53.20753 | 16.03986 | 37099 ft | 482 kts | 343° |
| 2026-04-22 13:23 | 53.27001 | 15.99884 | 37127 ft | 483 kts | 343° |
| 2026-04-22 13:24 | 53.33246 | 15.95771 | 37176 ft | 483 kts | 343° |
| 2026-04-22 13:24 | 53.39471 | 15.91659 | 37202 ft | 483 kts | 343° |
| 2026-04-22 13:25 | 53.45725 | 15.87514 | 37235 ft | 483 kts | 343° |
| 2026-04-22 13:25 | 53.51989 | 15.83347 | 37266 ft | 484 kts | 343° |
| 2026-04-22 13:26 | 53.58244 | 15.79174 | 37288 ft | 484 kts | 343° |
| 2026-04-22 13:26 | 53.64502 | 15.74985 | 37322 ft | 484 kts | 343° |
| 2026-04-22 13:27 | 53.70764 | 15.70779 | 37349 ft | 484 kts | 343° |
| 2026-04-22 13:27 | 53.77026 | 15.66561 | 37381 ft | 484 kts | 343° |
| 2026-04-22 13:28 | 53.83243 | 15.62360 | 37399 ft | 484 kts | 343° |
| 2026-04-22 13:28 | 53.89499 | 15.58118 | 37421 ft | 484 kts | 343° |
| 2026-04-22 13:29 | 53.95754 | 15.53862 | 37439 ft | 484 kts | 343° |
| 2026-04-22 13:29 | 54.02023 | 15.49583 | 37454 ft | 484 kts | 343° |
| 2026-04-22 13:30 | 54.08279 | 15.45300 | 37464 ft | 485 kts | 343° |
| 2026-04-22 13:30 | 54.13482 | 15.41727 | 37475 ft | 485 kts | 343° |
| 2026-04-22 13:31 | 54.16345 | 15.39757 | 37481 ft | 485 kts | 343° |
| 2026-04-22 13:31 | 54.22598 | 15.35443 | 37506 ft | 485 kts | 343° |
| 2026-04-22 13:32 | 54.28857 | 15.31111 | 37511 ft | 485 kts | 343° |
| 2026-04-22 13:32 | 54.35111 | 15.26769 | 37517 ft | 485 kts | 343° |
| 2026-04-22 13:33 | 54.41364 | 15.22434 | 37533 ft | 484 kts | 343° |
| 2026-04-22 13:33 | 54.47630 | 15.18183 | 37538 ft | 484 kts | 344° |
| 2026-04-22 13:34 | 54.53905 | 15.13929 | 37545 ft | 484 kts | 344° |
| 2026-04-22 13:34 | 54.60146 | 15.09667 | 37546 ft | 485 kts | 344° |
| 2026-04-22 13:35 | 54.66425 | 15.05358 | 37556 ft | 485 kts | 344° |
| 2026-04-22 13:35 | 54.72696 | 15.01040 | 37561 ft | 485 kts | 344° |
| 2026-04-22 13:36 | 54.78973 | 14.96706 | 37580 ft | 485 kts | 344° |
| 2026-04-22 13:36 | 54.85338 | 14.93122 | 37583 ft | 477 kts | 353° |
| 2026-04-22 13:37 | 54.91780 | 14.90807 | 37595 ft | 475 kts | 354° |
| 2026-04-22 13:37 | 54.98281 | 14.88555 | 37610 ft | 476 kts | 354° |
| 2026-04-22 13:38 | 55.04773 | 14.86244 | 37628 ft | 476 kts | 354° |
| 2026-04-22 13:38 | 55.14508 | 14.82691 | 37648 ft | 476 kts | 354° |
| 2026-04-22 13:39 | 55.20995 | 14.80303 | 37668 ft | 477 kts | 354° |
| 2026-04-22 13:39 | 55.27493 | 14.77905 | 37667 ft | 477 kts | 354° |
| 2026-04-22 13:40 | 55.33944 | 14.75518 | 37674 ft | 477 kts | 354° |
| 2026-04-22 13:40 | 55.40450 | 14.73105 | 37676 ft | 477 kts | 354° |
| 2026-04-22 13:41 | 55.46944 | 14.70687 | 37683 ft | 477 kts | 354° |
| 2026-04-22 13:41 | 55.53450 | 14.68256 | 37694 ft | 477 kts | 354° |
| 2026-04-22 13:42 | 55.59953 | 14.65819 | 37701 ft | 477 kts | 354° |
| 2026-04-22 13:42 | 55.66453 | 14.63374 | 37704 ft | 477 kts | 354° |
| 2026-04-22 13:43 | 55.72920 | 14.60933 | 37710 ft | 477 kts | 354° |
| 2026-04-22 13:43 | 55.79420 | 14.58471 | 37727 ft | 477 kts | 354° |
| 2026-04-22 13:44 | 55.85920 | 14.56002 | 37742 ft | 477 kts | 354° |
| 2026-04-22 13:44 | 55.92420 | 14.53523 | 37744 ft | 477 kts | 354° |
| 2026-04-22 13:45 | 55.98915 | 14.51039 | 37753 ft | 477 kts | 354° |
| 2026-04-22 13:45 | 56.05367 | 14.48561 | 37766 ft | 477 kts | 354° |
| 2026-04-22 13:46 | 56.11864 | 14.46058 | 37773 ft | 477 kts | 354° |
| 2026-04-22 13:46 | 56.18354 | 14.43548 | 37798 ft | 477 kts | 354° |
| 2026-04-22 13:47 | 56.24850 | 14.41030 | 37819 ft | 477 kts | 354° |
| 2026-04-22 13:47 | 56.31341 | 14.38506 | 37830 ft | 477 kts | 354° |
| 2026-04-22 13:48 | 56.37791 | 14.35985 | 37843 ft | 477 kts | 354° |
| 2026-04-22 13:48 | 56.44278 | 14.33441 | 37858 ft | 477 kts | 354° |
| 2026-04-22 13:49 | 56.50757 | 14.30892 | 37871 ft | 476 kts | 354° |
| 2026-04-22 13:49 | 56.57252 | 14.28329 | 37891 ft | 476 kts | 354° |
| 2026-04-22 13:50 | 56.63732 | 14.25762 | 37902 ft | 476 kts | 354° |
| 2026-04-22 13:50 | 56.70204 | 14.23189 | 37907 ft | 476 kts | 354° |
| 2026-04-22 13:51 | 56.76637 | 14.20623 | 37932 ft | 476 kts | 354° |
| 2026-04-22 13:51 | 56.83113 | 14.18031 | 37941 ft | 475 kts | 354° |
| 2026-04-22 13:52 | 56.89571 | 14.15437 | 37955 ft | 475 kts | 353° |
| 2026-04-22 13:52 | 56.96034 | 14.12831 | 37970 ft | 475 kts | 353° |
| 2026-04-22 13:53 | 57.02499 | 14.10215 | 37974 ft | 475 kts | 353° |
| 2026-04-22 13:53 | 57.08909 | 14.07612 | 37984 ft | 474 kts | 353° |
| 2026-04-22 13:54 | 57.15349 | 14.04986 | 38090 ft | 472 kts | 353° |
| 2026-04-22 13:54 | 57.21757 | 14.02366 | 38180 ft | 471 kts | 353° |
| 2026-04-22 13:55 | 57.28154 | 13.99743 | 38172 ft | 471 kts | 353° |
| 2026-04-22 13:55 | 57.34542 | 13.97112 | 38189 ft | 470 kts | 353° |
| 2026-04-22 13:56 | 57.40925 | 13.94473 | 38189 ft | 470 kts | 353° |
| 2026-04-22 13:56 | 57.47320 | 13.91822 | 38185 ft | 470 kts | 353° |
| 2026-04-22 13:57 | 57.53716 | 13.89160 | 38197 ft | 470 kts | 353° |
| 2026-04-22 13:57 | 57.60058 | 13.86510 | 38188 ft | 470 kts | 353° |
| 2026-04-22 13:58 | 57.66453 | 13.83828 | 38189 ft | 470 kts | 353° |
| 2026-04-22 13:58 | 57.72833 | 13.81143 | 38188 ft | 470 kts | 353° |
| 2026-04-22 13:59 | 57.79215 | 13.78448 | 38185 ft | 470 kts | 353° |
| 2026-04-22 13:59 | 57.85589 | 13.75747 | 38187 ft | 470 kts | 353° |
| 2026-04-22 14:00 | 57.91924 | 13.73052 | 38188 ft | 469 kts | 353° |
| 2026-04-22 14:00 | 57.94080 | 13.72133 | 38190 ft | 469 kts | 353° |
| 2026-04-22 14:01 | 58.00183 | 13.69523 | 38189 ft | 469 kts | 353° |
| 2026-04-22 14:01 | 58.06547 | 13.66793 | 38193 ft | 468 kts | 353° |
| 2026-04-22 14:02 | 58.12898 | 13.64059 | 38190 ft | 468 kts | 353° |
| 2026-04-22 14:02 | 58.19207 | 13.61333 | 38188 ft | 468 kts | 353° |
| 2026-04-22 14:03 | 58.25556 | 13.58580 | 38206 ft | 467 kts | 353° |
| 2026-04-22 14:03 | 58.31893 | 13.55821 | 38194 ft | 467 kts | 353° |
| 2026-04-22 14:04 | 58.38231 | 13.53052 | 38192 ft | 467 kts | 353° |
| 2026-04-22 14:04 | 58.44564 | 13.50275 | 38193 ft | 466 kts | 353° |
| 2026-04-22 14:05 | 58.50884 | 13.47494 | 38191 ft | 466 kts | 353° |
| 2026-04-22 14:06 | 58.60360 | 13.43304 | 38198 ft | 466 kts | 353° |
| 2026-04-22 14:06 | 58.66683 | 13.40496 | 38186 ft | 466 kts | 353° |
| 2026-04-22 14:07 | 58.72962 | 13.37696 | 38192 ft | 465 kts | 353° |
| 2026-04-22 14:07 | 58.79281 | 13.34868 | 38189 ft | 465 kts | 353° |
| 2026-04-22 14:08 | 58.85590 | 13.32034 | 38189 ft | 465 kts | 353° |
| 2026-04-22 14:08 | 58.90825 | 13.29674 | 38187 ft | 465 kts | 353° |
| 2026-04-22 14:09 | 58.97127 | 13.26824 | 38182 ft | 464 kts | 353° |
| 2026-04-22 14:09 | 59.04442 | 13.23502 | 38182 ft | 464 kts | 353° |
| 2026-04-22 14:10 | 59.09684 | 13.21113 | 38181 ft | 464 kts | 353° |
| 2026-04-22 14:10 | 59.15972 | 13.18237 | 38177 ft | 464 kts | 353° |
| 2026-04-22 14:11 | 59.22264 | 13.15347 | 38182 ft | 464 kts | 353° |
| 2026-04-22 14:11 | 59.28559 | 13.12446 | 38185 ft | 463 kts | 353° |
| 2026-04-22 14:12 | 59.34828 | 13.09545 | 38181 ft | 463 kts | 353° |
| 2026-04-22 14:12 | 59.41103 | 13.06631 | 38185 ft | 463 kts | 353° |
| 2026-04-22 14:13 | 59.47330 | 13.03728 | 38181 ft | 463 kts | 352° |
| 2026-04-22 14:13 | 59.53601 | 13.00794 | 38182 ft | 463 kts | 352° |
| 2026-04-22 14:14 | 59.59869 | 12.97850 | 38182 ft | 463 kts | 352° |
| 2026-04-22 14:14 | 59.66142 | 12.94893 | 38171 ft | 462 kts | 352° |
| 2026-04-22 14:15 | 59.72401 | 12.91929 | 38179 ft | 462 kts | 352° |
| 2026-04-22 14:15 | 59.78654 | 12.88957 | 38179 ft | 462 kts | 352° |
| 2026-04-22 14:16 | 59.84869 | 12.85993 | 38183 ft | 462 kts | 352° |
| 2026-04-22 14:16 | 59.91117 | 12.83001 | 38180 ft | 461 kts | 352° |
| 2026-04-22 14:17 | 59.97364 | 12.79998 | 38185 ft | 461 kts | 352° |
| 2026-04-22 14:17 | 60.03600 | 12.76988 | 38189 ft | 461 kts | 352° |
| 2026-04-22 14:18 | 60.09835 | 12.73968 | 38180 ft | 461 kts | 352° |
| 2026-04-22 14:18 | 60.16074 | 12.70934 | 38185 ft | 461 kts | 352° |
| 2026-04-22 14:19 | 60.22311 | 12.67889 | 38179 ft | 461 kts | 352° |
| 2026-04-22 14:19 | 60.28540 | 12.64833 | 38204 ft | 461 kts | 352° |
| 2026-04-22 14:20 | 60.37853 | 12.60247 | 38178 ft | 461 kts | 352° |
| 2026-04-22 14:20 | 60.44078 | 12.57167 | 38201 ft | 460 kts | 352° |
| 2026-04-22 14:21 | 60.53417 | 12.52520 | 38200 ft | 460 kts | 352° |
| 2026-04-22 14:22 | 60.62744 | 12.47852 | 38198 ft | 461 kts | 352° |
| 2026-04-22 14:23 | 60.72084 | 12.43151 | 38209 ft | 461 kts | 352° |
| 2026-04-22 14:23 | 60.78321 | 12.39996 | 38201 ft | 461 kts | 351° |
| 2026-04-22 14:24 | 60.84551 | 12.36831 | 38215 ft | 461 kts | 351° |
| 2026-04-22 14:24 | 60.90753 | 12.33668 | 38203 ft | 462 kts | 351° |
| 2026-04-22 14:25 | 60.97007 | 12.30466 | 38207 ft | 463 kts | 351° |
| 2026-04-22 14:25 | 61.03256 | 12.27253 | 38210 ft | 463 kts | 351° |
| 2026-04-22 14:26 | 61.09513 | 12.24023 | 38213 ft | 463 kts | 351° |
| 2026-04-22 14:26 | 61.15734 | 12.20799 | 38216 ft | 464 kts | 351° |
| 2026-04-22 14:27 | 61.22009 | 12.17532 | 38220 ft | 465 kts | 351° |
| 2026-04-22 14:27 | 61.28288 | 12.14252 | 38221 ft | 465 kts | 351° |
| 2026-04-22 14:28 | 61.34566 | 12.10957 | 38230 ft | 466 kts | 350° |
| 2026-04-22 14:28 | 61.40849 | 12.07645 | 38237 ft | 466 kts | 350° |
| 2026-04-22 14:29 | 61.47144 | 12.04313 | 38238 ft | 467 kts | 350° |
| 2026-04-22 14:29 | 61.53445 | 12.00966 | 38244 ft | 467 kts | 350° |
| 2026-04-22 14:30 | 61.59711 | 11.97623 | 38240 ft | 467 kts | 350° |
| 2026-04-22 14:30 | 61.64982 | 11.94797 | 38250 ft | 467 kts | 350° |
| 2026-04-22 14:31 | 61.67814 | 11.93276 | 38244 ft | 467 kts | 350° |
| 2026-04-22 14:31 | 61.74114 | 11.89883 | 38247 ft | 468 kts | 350° |
| 2026-04-22 14:32 | 61.80427 | 11.86468 | 38257 ft | 468 kts | 350° |
| 2026-04-22 14:32 | 61.86727 | 11.83045 | 38248 ft | 468 kts | 349° |
| 2026-04-22 14:33 | 61.93035 | 11.79604 | 38259 ft | 468 kts | 349° |
| 2026-04-22 14:33 | 61.99340 | 11.76149 | 38263 ft | 468 kts | 349° |
| 2026-04-22 14:34 | 62.05643 | 11.72679 | 38276 ft | 468 kts | 349° |
| 2026-04-22 14:34 | 62.11948 | 11.69195 | 38262 ft | 468 kts | 349° |
| 2026-04-22 14:35 | 62.18216 | 11.65717 | 38269 ft | 468 kts | 349° |
| 2026-04-22 14:35 | 62.24518 | 11.62203 | 38271 ft | 468 kts | 349° |
| 2026-04-22 14:36 | 62.30827 | 11.58671 | 38283 ft | 468 kts | 349° |
| 2026-04-22 14:36 | 62.37137 | 11.55122 | 38282 ft | 468 kts | 349° |
| 2026-04-22 14:37 | 62.43443 | 11.51560 | 38260 ft | 469 kts | 349° |
| 2026-04-22 14:37 | 62.49757 | 11.47981 | 38271 ft | 469 kts | 348° |
| 2026-04-22 14:38 | 62.56067 | 11.44385 | 38247 ft | 469 kts | 348° |
| 2026-04-22 14:38 | 62.62376 | 11.40774 | 38270 ft | 468 kts | 348° |
| 2026-04-22 14:39 | 62.68680 | 11.37150 | 38272 ft | 468 kts | 348° |
| 2026-04-22 14:39 | 62.74937 | 11.33539 | 38271 ft | 467 kts | 348° |
| 2026-04-22 14:40 | 62.84436 | 11.29072 | 38295 ft | 463 kts | 357° |
| 2026-04-22 14:40 | 62.90844 | 11.28735 | 38308 ft | 459 kts | 3° |
| 2026-04-22 14:41 | 62.97194 | 11.28961 | 38307 ft | 459 kts | 3° |
| 2026-04-22 14:41 | 63.03576 | 11.29174 | 38314 ft | 458 kts | 3° |
| 2026-04-22 14:42 | 63.09957 | 11.29329 | 38312 ft | 458 kts | 2° |
| 2026-04-22 14:42 | 63.16334 | 11.29456 | 38310 ft | 458 kts | 2° |
| 2026-04-22 14:43 | 63.22715 | 11.29579 | 38318 ft | 458 kts | 2° |
| 2026-04-22 14:43 | 63.29091 | 11.29703 | 38315 ft | 458 kts | 2° |
| 2026-04-22 14:44 | 63.35462 | 11.29831 | 38320 ft | 457 kts | 2° |
| 2026-04-22 14:44 | 63.41790 | 11.29958 | 38316 ft | 457 kts | 2° |
| 2026-04-22 14:45 | 63.48158 | 11.30087 | 38313 ft | 457 kts | 1° |
| 2026-04-22 14:45 | 63.54511 | 11.30218 | 38314 ft | 456 kts | 1° |
| 2026-04-22 14:46 | 63.60853 | 11.30345 | 38315 ft | 455 kts | 1° |
| 2026-04-22 14:46 | 63.67191 | 11.30475 | 38302 ft | 455 kts | 1° |
| 2026-04-22 14:47 | 63.73484 | 11.30605 | 38287 ft | 455 kts | 1° |
| 2026-04-22 14:47 | 63.79807 | 11.30736 | 38282 ft | 454 kts | 1° |
| 2026-04-22 14:48 | 63.86126 | 11.30868 | 38286 ft | 453 kts | 1° |
| 2026-04-22 14:48 | 63.92440 | 11.30999 | 38289 ft | 453 kts | 1° |
| 2026-04-22 14:49 | 63.98740 | 11.31132 | 38272 ft | 453 kts | 1° |
| 2026-04-22 14:49 | 64.05042 | 11.31265 | 38270 ft | 452 kts | 1° |
| 2026-04-22 14:50 | 64.11323 | 11.31397 | 38275 ft | 451 kts | 1° |
| 2026-04-22 14:50 | 64.17599 | 11.31531 | 38269 ft | 450 kts | 1° |
| 2026-04-22 14:51 | 64.23820 | 11.31664 | 38271 ft | 449 kts | 1° |
| 2026-04-22 14:51 | 64.30072 | 11.31798 | 38261 ft | 448 kts | 0° |
| 2026-04-22 14:52 | 64.36300 | 11.31931 | 38261 ft | 447 kts | 0° |
| 2026-04-22 14:52 | 64.42537 | 11.32067 | 38262 ft | 446 kts | 0° |
| 2026-04-22 14:53 | 64.48697 | 11.32201 | 38262 ft | 445 kts | 0° |
| 2026-04-22 14:53 | 64.54888 | 11.32336 | 38258 ft | 444 kts | 0° |
| 2026-04-22 14:54 | 64.61062 | 11.32471 | 38259 ft | 443 kts | 0° |
| 2026-04-22 14:54 | 64.67225 | 11.32607 | 38263 ft | 442 kts | 0° |
| 2026-04-22 14:55 | 64.73373 | 11.32743 | 38259 ft | 441 kts | 0° |
| 2026-04-22 14:55 | 64.79469 | 11.32879 | 38263 ft | 441 kts | 0° |
| 2026-04-22 14:56 | 64.85600 | 11.33016 | 38268 ft | 440 kts | 360° |
| 2026-04-22 14:56 | 64.91697 | 11.32381 | 38256 ft | 439 kts | 349° |
| 2026-04-22 14:57 | 64.96567 | 11.29073 | 38262 ft | 439 kts | 339° |
| 2026-04-22 14:57 | 65.01988 | 11.22323 | 38254 ft | 441 kts | 331° |
| 2026-04-22 14:58 | 65.07266 | 11.14858 | 38252 ft | 442 kts | 330° |
| 2026-04-22 14:58 | 65.12560 | 11.07371 | 38263 ft | 443 kts | 331° |
| 2026-04-22 14:59 | 65.17836 | 10.99969 | 38266 ft | 443 kts | 331° |
| 2026-04-22 14:59 | 65.23157 | 10.92510 | 38261 ft | 444 kts | 331° |
| 2026-04-22 15:00 | 65.28498 | 10.84999 | 38251 ft | 445 kts | 330° |
| 2026-04-22 15:00 | 65.31095 | 10.81332 | 38254 ft | 445 kts | 330° |
| 2026-04-22 15:01 | 65.35192 | 10.75529 | 38249 ft | 446 kts | 330° |
| 2026-04-22 15:01 | 65.40543 | 10.67919 | 38256 ft | 447 kts | 330° |
| 2026-04-22 15:02 | 65.45887 | 10.60280 | 38251 ft | 447 kts | 330° |
| 2026-04-22 15:02 | 65.51205 | 10.52642 | 38249 ft | 448 kts | 330° |
| 2026-04-22 15:03 | 65.56555 | 10.44921 | 38253 ft | 448 kts | 330° |
| 2026-04-22 15:03 | 65.61904 | 10.37164 | 38251 ft | 449 kts | 330° |
| 2026-04-22 15:04 | 65.67265 | 10.29351 | 38253 ft | 449 kts | 329° |
| 2026-04-22 15:04 | 65.72619 | 10.21511 | 38249 ft | 449 kts | 329° |
| 2026-04-22 15:05 | 65.77970 | 10.13637 | 38249 ft | 449 kts | 329° |
| 2026-04-22 15:05 | 65.83317 | 10.05728 | 38261 ft | 450 kts | 329° |
| 2026-04-22 15:06 | 65.88639 | 9.97820 | 38251 ft | 450 kts | 329° |
| 2026-04-22 15:06 | 65.93987 | 9.89832 | 38250 ft | 450 kts | 329° |
| 2026-04-22 15:07 | 65.99323 | 9.81823 | 38255 ft | 451 kts | 328° |
| 2026-04-22 15:07 | 66.04681 | 9.73741 | 38254 ft | 451 kts | 328° |
| 2026-04-22 15:08 | 66.10019 | 9.65649 | 38255 ft | 451 kts | 328° |
| 2026-04-22 15:08 | 66.15358 | 9.57515 | 38251 ft | 451 kts | 328° |
| 2026-04-22 15:09 | 66.20696 | 9.49341 | 38254 ft | 451 kts | 328° |
| 2026-04-22 15:09 | 66.25994 | 9.41188 | 38256 ft | 450 kts | 328° |
| 2026-04-22 15:10 | 66.31314 | 9.32959 | 38255 ft | 450 kts | 328° |
| 2026-04-22 15:10 | 66.36626 | 9.24702 | 38257 ft | 450 kts | 328° |
| 2026-04-22 15:11 | 66.41934 | 9.16409 | 38257 ft | 450 kts | 327° |
| 2026-04-22 15:11 | 66.47233 | 9.08087 | 38251 ft | 449 kts | 327° |
| 2026-04-22 15:12 | 66.52518 | 8.99745 | 38251 ft | 449 kts | 327° |
| 2026-04-22 15:12 | 66.57768 | 8.91416 | 38246 ft | 448 kts | 327° |
| 2026-04-22 15:13 | 66.63043 | 8.83005 | 38243 ft | 447 kts | 327° |
| 2026-04-22 15:13 | 66.68298 | 8.74583 | 38245 ft | 447 kts | 327° |
| 2026-04-22 15:14 | 66.73503 | 8.66201 | 38241 ft | 446 kts | 327° |
| 2026-04-22 15:14 | 66.78686 | 8.57552 | 38240 ft | 445 kts | 324° |
| 2026-04-22 15:15 | 66.83688 | 8.48305 | 38247 ft | 445 kts | 323° |
| 2026-04-22 15:15 | 66.88651 | 8.38930 | 38253 ft | 444 kts | 323° |
| 2026-04-22 15:16 | 66.93617 | 8.29550 | 38254 ft | 444 kts | 323° |
| 2026-04-22 15:16 | 66.98585 | 8.20166 | 38256 ft | 444 kts | 323° |
| 2026-04-22 15:17 | 67.03513 | 8.10826 | 38261 ft | 443 kts | 323° |
| 2026-04-22 15:17 | 67.08467 | 8.01392 | 38262 ft | 443 kts | 322° |
| 2026-04-22 15:18 | 67.13415 | 7.91917 | 38262 ft | 443 kts | 322° |
| 2026-04-22 15:18 | 67.18348 | 7.82423 | 38263 ft | 443 kts | 322° |
| 2026-04-22 15:19 | 67.23278 | 7.72882 | 38264 ft | 442 kts | 322° |
| 2026-04-22 15:19 | 67.28167 | 7.63371 | 38261 ft | 442 kts | 322° |
| 2026-04-22 15:20 | 67.33076 | 7.53773 | 38259 ft | 442 kts | 322° |
| 2026-04-22 15:20 | 67.37973 | 7.44145 | 38262 ft | 442 kts | 322° |
| 2026-04-22 15:21 | 67.42866 | 7.34475 | 38262 ft | 442 kts | 322° |
| 2026-04-22 15:21 | 67.47751 | 7.24770 | 38263 ft | 441 kts | 321° |
| 2026-04-22 15:22 | 67.52604 | 7.15077 | 38260 ft | 441 kts | 321° |
| 2026-04-22 15:22 | 67.57503 | 7.05241 | 38262 ft | 441 kts | 321° |
| 2026-04-22 15:23 | 67.62331 | 6.95496 | 38260 ft | 441 kts | 321° |
| 2026-04-22 15:23 | 67.67190 | 6.85635 | 38266 ft | 441 kts | 321° |
| 2026-04-22 15:24 | 67.72036 | 6.75747 | 38262 ft | 441 kts | 321° |
| 2026-04-22 15:24 | 67.76881 | 6.65808 | 38262 ft | 441 kts | 321° |
| 2026-04-22 15:25 | 67.81716 | 6.55837 | 38261 ft | 440 kts | 321° |
| 2026-04-22 15:25 | 67.86540 | 6.45834 | 38260 ft | 440 kts | 320° |
| 2026-04-22 15:26 | 67.91358 | 6.35790 | 38261 ft | 440 kts | 320° |
| 2026-04-22 15:26 | 67.96141 | 6.25764 | 38264 ft | 440 kts | 320° |
| 2026-04-22 15:27 | 68.00946 | 6.15639 | 38262 ft | 440 kts | 320° |
| 2026-04-22 15:27 | 68.05740 | 6.05481 | 38259 ft | 440 kts | 320° |
| 2026-04-22 15:28 | 68.10524 | 5.95288 | 38263 ft | 439 kts | 320° |
| 2026-04-22 15:28 | 68.15302 | 5.85052 | 38262 ft | 439 kts | 320° |
| 2026-04-22 15:29 | 68.20038 | 5.74850 | 38263 ft | 439 kts | 320° |
| 2026-04-22 15:30 | 68.26371 | 5.61122 | 38257 ft | 438 kts | 319° |
| 2026-04-22 15:30 | 68.31147 | 5.50701 | 38257 ft | 438 kts | 319° |
| 2026-04-22 15:31 | 68.33266 | 5.46059 | 38256 ft | 438 kts | 319° |
| 2026-04-22 15:31 | 68.38011 | 5.35623 | 38255 ft | 438 kts | 319° |
| 2026-04-22 15:32 | 68.42704 | 5.25245 | 38255 ft | 437 kts | 319° |
| 2026-04-22 15:32 | 68.47414 | 5.14772 | 38256 ft | 437 kts | 319° |
| 2026-04-22 15:33 | 68.52119 | 5.04249 | 38254 ft | 437 kts | 319° |
| 2026-04-22 15:33 | 68.56812 | 4.93696 | 38253 ft | 436 kts | 319° |
| 2026-04-22 15:34 | 68.61496 | 4.83103 | 38254 ft | 436 kts | 318° |
| 2026-04-22 15:34 | 68.66140 | 4.72543 | 38253 ft | 436 kts | 318° |
| 2026-04-22 15:35 | 68.70014 | 4.63689 | 38249 ft | 436 kts | 318° |
| 2026-04-22 15:35 | 68.75456 | 4.51181 | 38250 ft | 435 kts | 318° |
| 2026-04-22 15:36 | 68.80097 | 4.40447 | 38247 ft | 435 kts | 318° |
| 2026-04-22 15:36 | 68.84704 | 4.29734 | 38246 ft | 435 kts | 317° |
| 2026-04-22 15:37 | 68.89329 | 4.18916 | 38246 ft | 435 kts | 317° |
| 2026-04-22 15:37 | 68.93943 | 4.08064 | 38249 ft | 435 kts | 317° |
| 2026-04-22 15:38 | 68.98554 | 3.97157 | 38249 ft | 435 kts | 317° |
| 2026-04-22 15:38 | 69.05458 | 3.80709 | 38247 ft | 435 kts | 317° |
| 2026-04-22 15:39 | 69.10027 | 3.69745 | 38246 ft | 435 kts | 317° |
| 2026-04-22 15:39 | 69.14617 | 3.58670 | 38236 ft | 435 kts | 316° |
| 2026-04-22 15:40 | 69.19194 | 3.47560 | 38241 ft | 435 kts | 316° |
| 2026-04-22 15:40 | 69.23760 | 3.36413 | 38241 ft | 435 kts | 316° |
| 2026-04-22 15:41 | 69.28324 | 3.25207 | 38239 ft | 435 kts | 316° |
| 2026-04-22 15:41 | 69.32881 | 3.13952 | 38233 ft | 435 kts | 316° |
| 2026-04-22 15:42 | 69.37401 | 3.02725 | 38239 ft | 435 kts | 316° |
| 2026-04-22 15:42 | 69.41944 | 2.91373 | 38231 ft | 435 kts | 316° |
| 2026-04-22 15:43 | 69.46474 | 2.79988 | 38234 ft | 435 kts | 315° |
| 2026-04-22 15:43 | 69.50998 | 2.68553 | 38229 ft | 435 kts | 315° |
| 2026-04-22 15:44 | 69.55517 | 2.57061 | 38231 ft | 435 kts | 315° |
| 2026-04-22 15:44 | 69.60031 | 2.45513 | 38227 ft | 435 kts | 315° |
| 2026-04-22 15:45 | 69.64536 | 2.33921 | 38230 ft | 435 kts | 315° |
| 2026-04-22 15:45 | 69.69032 | 2.22281 | 38229 ft | 435 kts | 315° |
| 2026-04-22 15:46 | 69.73497 | 2.10656 | 38234 ft | 435 kts | 315° |
| 2026-04-22 15:46 | 69.77983 | 1.98903 | 38223 ft | 435 kts | 314° |
| 2026-04-22 15:47 | 69.81701 | 1.89110 | 38213 ft | 435 kts | 314° |
| 2026-04-22 15:47 | 69.86904 | 1.75323 | 38214 ft | 435 kts | 314° |
| 2026-04-22 15:48 | 69.90644 | 1.65353 | 38217 ft | 435 kts | 314° |
| 2026-04-22 15:48 | 69.95069 | 1.53490 | 38216 ft | 435 kts | 314° |
| 2026-04-22 15:49 | 69.99549 | 1.41409 | 38213 ft | 435 kts | 314° |
| 2026-04-22 15:49 | 70.03963 | 1.29432 | 38212 ft | 436 kts | 314° |
| 2026-04-22 15:50 | 70.08397 | 1.17327 | 38206 ft | 436 kts | 313° |
| 2026-04-22 15:50 | 70.12824 | 1.05166 | 38208 ft | 436 kts | 313° |
| 2026-04-22 15:51 | 70.17247 | 0.92942 | 38203 ft | 436 kts | 313° |
| 2026-04-22 15:51 | 70.21659 | 0.80671 | 38203 ft | 436 kts | 313° |
| 2026-04-22 15:52 | 70.26066 | 0.68341 | 38199 ft | 436 kts | 313° |
| 2026-04-22 15:52 | 70.30465 | 0.55956 | 38198 ft | 436 kts | 313° |
| 2026-04-22 15:53 | 70.34861 | 0.43501 | 38195 ft | 437 kts | 312° |
| 2026-04-22 15:53 | 70.39248 | 0.30991 | 38194 ft | 437 kts | 312° |
| 2026-04-22 15:54 | 70.43630 | 0.18419 | 38193 ft | 437 kts | 312° |
| 2026-04-22 15:54 | 70.47977 | 0.05879 | 38192 ft | 437 kts | 312° |
| 2026-04-22 15:55 | 70.52297 | -0.06927 | 38187 ft | 436 kts | 310° |
| 2026-04-22 15:55 | 70.56438 | -0.20255 | 38188 ft | 436 kts | 309° |
| 2026-04-22 15:56 | 70.60544 | -0.33701 | 38182 ft | 437 kts | 309° |
| 2026-04-22 15:56 | 70.64663 | -0.47164 | 38185 ft | 437 kts | 309° |
| 2026-04-22 15:57 | 70.68788 | -0.60659 | 38180 ft | 437 kts | 309° |
| 2026-04-22 15:57 | 70.72909 | -0.74199 | 38178 ft | 437 kts | 309° |
| 2026-04-22 15:58 | 70.77021 | -0.87801 | 38177 ft | 438 kts | 308° |
| 2026-04-22 15:58 | 70.81096 | -1.01369 | 38177 ft | 438 kts | 308° |
| 2026-04-22 15:59 | 70.85192 | -1.15096 | 38168 ft | 438 kts | 308° |
| 2026-04-22 15:59 | 70.89275 | -1.28876 | 38173 ft | 437 kts | 308° |
| 2026-04-22 16:00 | 70.93347 | -1.42708 | 38171 ft | 437 kts | 308° |
| 2026-04-22 16:00 | 70.94692 | -1.47295 | 38166 ft | 437 kts | 308° |
| 2026-04-22 16:01 | 70.98757 | -1.61228 | 38161 ft | 437 kts | 308° |
| 2026-04-22 16:01 | 71.02771 | -1.75075 | 38159 ft | 437 kts | 308° |
| 2026-04-22 16:02 | 71.06798 | -1.89061 | 38153 ft | 436 kts | 308° |
| 2026-04-22 16:02 | 71.10818 | -2.03116 | 38153 ft | 436 kts | 307° |
| 2026-04-22 16:03 | 71.14818 | -2.17194 | 38153 ft | 436 kts | 307° |
| 2026-04-22 16:03 | 71.18778 | -2.31229 | 38150 ft | 435 kts | 307° |
| 2026-04-22 16:04 | 71.22760 | -2.45434 | 38145 ft | 435 kts | 307° |
| 2026-04-22 16:04 | 71.26722 | -2.59676 | 38143 ft | 435 kts | 307° |
| 2026-04-22 16:05 | 71.30673 | -2.73960 | 38143 ft | 435 kts | 307° |
| 2026-04-22 16:05 | 71.34584 | -2.88197 | 38143 ft | 435 kts | 307° |
| 2026-04-22 16:06 | 71.38515 | -3.02607 | 38139 ft | 435 kts | 307° |
| 2026-04-22 16:06 | 71.42438 | -3.17091 | 38135 ft | 436 kts | 307° |
| 2026-04-22 16:07 | 71.46354 | -3.31645 | 38133 ft | 436 kts | 307° |
| 2026-04-22 16:07 | 71.50256 | -3.46251 | 38132 ft | 436 kts | 307° |
| 2026-04-22 16:08 | 71.54155 | -3.60946 | 38131 ft | 436 kts | 307° |
| 2026-04-22 16:08 | 71.58021 | -3.75619 | 38138 ft | 437 kts | 307° |
| 2026-04-22 16:09 | 71.61897 | -3.90432 | 38131 ft | 437 kts | 306° |
| 2026-04-22 16:09 | 71.65763 | -4.05312 | 38128 ft | 437 kts | 306° |
| 2026-04-22 16:10 | 71.69625 | -4.20285 | 38108 ft | 438 kts | 306° |
| 2026-04-22 16:10 | 71.73479 | -4.35332 | 38117 ft | 438 kts | 306° |
| 2026-04-22 16:11 | 71.77327 | -4.50461 | 38115 ft | 439 kts | 306° |
| 2026-04-22 16:11 | 71.81169 | -4.65678 | 38129 ft | 439 kts | 306° |
| 2026-04-22 16:12 | 71.85003 | -4.80968 | 38110 ft | 440 kts | 306° |
| 2026-04-22 16:12 | 71.88807 | -4.96254 | 38104 ft | 441 kts | 306° |
| 2026-04-22 16:13 | 71.92626 | -5.11710 | 38105 ft | 441 kts | 306° |
| 2026-04-22 16:13 | 71.96437 | -5.27248 | 38107 ft | 442 kts | 305° |
| 2026-04-22 16:14 | 72.00243 | -5.42880 | 38104 ft | 442 kts | 305° |
| 2026-04-22 16:14 | 72.04035 | -5.58568 | 38104 ft | 443 kts | 305° |
| 2026-04-22 16:15 | 72.07796 | -5.74245 | 38105 ft | 443 kts | 305° |
| 2026-04-22 16:15 | 72.11579 | -5.90135 | 38100 ft | 444 kts | 305° |
| 2026-04-22 16:16 | 72.15349 | -6.06084 | 38100 ft | 444 kts | 305° |
| 2026-04-22 16:16 | 72.19105 | -6.22097 | 38104 ft | 445 kts | 304° |
| 2026-04-22 16:17 | 72.22853 | -6.38197 | 38102 ft | 445 kts | 304° |
| 2026-04-22 16:17 | 72.26568 | -6.54275 | 38103 ft | 445 kts | 304° |
| 2026-04-22 16:18 | 72.30300 | -6.70549 | 38103 ft | 445 kts | 304° |
| 2026-04-22 16:18 | 72.34013 | -6.86867 | 38102 ft | 445 kts | 304° |
| 2026-04-22 16:19 | 72.37714 | -7.03259 | 38092 ft | 445 kts | 304° |
| 2026-04-22 16:19 | 72.41401 | -7.19716 | 38095 ft | 445 kts | 304° |
| 2026-04-22 16:20 | 72.45069 | -7.36215 | 38092 ft | 445 kts | 304° |
| 2026-04-22 16:20 | 72.48724 | -7.52784 | 38092 ft | 445 kts | 304° |
| 2026-04-22 16:21 | 72.52341 | -7.69308 | 38089 ft | 445 kts | 304° |
| 2026-04-22 16:21 | 72.55961 | -7.85978 | 38089 ft | 444 kts | 304° |
| 2026-04-22 16:22 | 72.61374 | -8.11152 | 38084 ft | 444 kts | 304° |
| 2026-04-22 16:23 | 72.66725 | -8.36330 | 38084 ft | 444 kts | 303° |
| 2026-04-22 16:23 | 72.70283 | -8.53241 | 38090 ft | 443 kts | 303° |
| 2026-04-22 16:24 | 72.75595 | -8.78738 | 38086 ft | 443 kts | 303° |
| 2026-04-22 16:25 | 72.79115 | -8.95807 | 38084 ft | 443 kts | 303° |
| 2026-04-22 16:25 | 72.84373 | -9.21560 | 38084 ft | 443 kts | 303° |
| 2026-04-22 16:26 | 72.87857 | -9.38797 | 38089 ft | 443 kts | 303° |
| 2026-04-22 16:26 | 72.91325 | -9.56100 | 38087 ft | 443 kts | 303° |
| 2026-04-22 16:27 | 72.94755 | -9.73345 | 38089 ft | 442 kts | 303° |
| 2026-04-22 16:27 | 72.98197 | -9.90777 | 38089 ft | 442 kts | 303° |
| 2026-04-22 16:28 | 73.01845 | -10.07695 | 38090 ft | 442 kts | 309° |
| 2026-04-22 16:28 | 73.05857 | -10.23726 | 38089 ft | 442 kts | 309° |
| 2026-04-22 16:29 | 73.09842 | -10.39618 | 38090 ft | 442 kts | 309° |
| 2026-04-22 16:29 | 73.13823 | -10.55718 | 38080 ft | 441 kts | 309° |
| 2026-04-22 16:30 | 73.17781 | -10.71927 | 38085 ft | 441 kts | 308° |
| 2026-04-22 16:30 | 73.19088 | -10.77314 | 38084 ft | 441 kts | 308° |
| 2026-04-22 16:31 | 73.22900 | -10.93110 | 38081 ft | 440 kts | 308° |
| 2026-04-22 16:31 | 73.26810 | -11.09435 | 38085 ft | 440 kts | 308° |
| 2026-04-22 16:32 | 73.30705 | -11.25820 | 38082 ft | 439 kts | 308° |
| 2026-04-22 16:32 | 73.34583 | -11.42265 | 38083 ft | 439 kts | 308° |
| 2026-04-22 16:33 | 73.38421 | -11.58665 | 38092 ft | 438 kts | 308° |
| 2026-04-22 16:33 | 73.42267 | -11.75232 | 38087 ft | 438 kts | 307° |
| 2026-04-22 16:34 | 73.45447 | -11.89029 | 38087 ft | 437 kts | 307° |
| 2026-04-22 16:34 | 73.49263 | -12.05710 | 38084 ft | 437 kts | 307° |
| 2026-04-22 16:35 | 73.53062 | -12.22444 | 38085 ft | 436 kts | 307° |
| 2026-04-22 16:35 | 73.56838 | -12.39212 | 38081 ft | 436 kts | 307° |
| 2026-04-22 16:36 | 73.60577 | -12.55952 | 38079 ft | 436 kts | 306° |
| 2026-04-22 16:36 | 73.64324 | -12.72857 | 38085 ft | 435 kts | 306° |
| 2026-04-22 16:37 | 73.68054 | -12.89826 | 38094 ft | 435 kts | 306° |
| 2026-04-22 16:37 | 73.71772 | -13.06879 | 38088 ft | 435 kts | 306° |
| 2026-04-22 16:38 | 73.75444 | -13.23852 | 38278 ft | 435 kts | 304° |
| 2026-04-22 16:38 | 73.79133 | -13.41045 | 38160 ft | 436 kts | 303° |
| 2026-04-22 16:39 | 73.82818 | -13.58364 | 38103 ft | 436 kts | 303° |
| 2026-04-22 16:39 | 73.86474 | -13.75685 | 38098 ft | 434 kts | 303° |
| 2026-04-22 16:40 | 73.90103 | -13.93021 | 38099 ft | 432 kts | 303° |
| 2026-04-22 16:41 | 73.95487 | -14.19008 | 38099 ft | 429 kts | 302° |
| 2026-04-22 16:41 | 73.99034 | -14.36306 | 38101 ft | 427 kts | 302° |
| 2026-04-22 16:42 | 74.02557 | -14.53627 | 38104 ft | 426 kts | 302° |
| 2026-04-22 16:42 | 74.06032 | -14.70857 | 38107 ft | 425 kts | 301° |
| 2026-04-22 16:43 | 74.09511 | -14.88247 | 38108 ft | 424 kts | 301° |
| 2026-04-22 16:43 | 74.12971 | -15.05688 | 38102 ft | 424 kts | 301° |
| 2026-04-22 16:44 | 74.16415 | -15.23190 | 38118 ft | 424 kts | 301° |
| 2026-04-22 16:44 | 74.19847 | -15.40777 | 38103 ft | 424 kts | 301° |
| 2026-04-22 16:45 | 74.23268 | -15.58458 | 38111 ft | 424 kts | 300° |
| 2026-04-22 16:45 | 74.26657 | -15.76119 | 38124 ft | 424 kts | 300° |
| 2026-04-22 16:46 | 74.30050 | -15.93950 | 38129 ft | 425 kts | 300° |
| 2026-04-22 16:46 | 74.33432 | -16.11874 | 38128 ft | 425 kts | 300° |
| 2026-04-22 16:47 | 74.36805 | -16.29906 | 38133 ft | 425 kts | 299° |
| 2026-04-22 16:47 | 74.40162 | -16.48007 | 38136 ft | 426 kts | 299° |
| 2026-04-22 16:48 | 74.43511 | -16.66218 | 38142 ft | 426 kts | 298° |
| 2026-04-22 16:48 | 74.46839 | -16.84477 | 38147 ft | 426 kts | 298° |
| 2026-04-22 16:49 | 74.50152 | -17.02807 | 38152 ft | 426 kts | 298° |
| 2026-04-22 16:49 | 74.53430 | -17.21109 | 38155 ft | 425 kts | 298° |
| 2026-04-22 16:50 | 74.56715 | -17.39605 | 38157 ft | 425 kts | 298° |
| 2026-04-22 16:50 | 74.59979 | -17.58150 | 38159 ft | 425 kts | 298° |
| 2026-04-22 16:51 | 74.63218 | -17.76716 | 38166 ft | 424 kts | 298° |
| 2026-04-22 16:51 | 74.66438 | -17.95333 | 38170 ft | 423 kts | 297° |
| 2026-04-22 16:52 | 74.69620 | -18.13899 | 38177 ft | 423 kts | 297° |
| 2026-04-22 16:52 | 74.72796 | -18.32600 | 38185 ft | 422 kts | 297° |
| 2026-04-22 16:53 | 74.75960 | -18.51394 | 38184 ft | 421 kts | 297° |
| 2026-04-22 16:53 | 74.79099 | -18.70207 | 38194 ft | 421 kts | 296° |
| 2026-04-22 16:54 | 74.82221 | -18.89085 | 38200 ft | 421 kts | 296° |
| 2026-04-22 16:54 | 74.85324 | -19.08026 | 38202 ft | 420 kts | 296° |
| 2026-04-22 16:55 | 74.88413 | -19.27050 | 38216 ft | 420 kts | 296° |
| 2026-04-22 16:55 | 74.91468 | -19.46037 | 38220 ft | 421 kts | 295° |
| 2026-04-22 16:56 | 74.94532 | -19.65258 | 38223 ft | 421 kts | 295° |
| 2026-04-22 16:56 | 74.97585 | -19.84560 | 38226 ft | 422 kts | 295° |
| 2026-04-22 16:57 | 75.00563 | -20.04116 | 38220 ft | 420 kts | 291° |
| 2026-04-22 16:57 | 75.03157 | -20.24139 | 38242 ft | 419 kts | 290° |
| 2026-04-22 16:58 | 75.05300 | -20.41209 | 38242 ft | 421 kts | 290° |
| 2026-04-22 16:58 | 75.08281 | -20.65085 | 38237 ft | 424 kts | 290° |
| 2026-04-22 16:59 | 75.10851 | -20.85772 | 38226 ft | 426 kts | 290° |
| 2026-04-22 16:59 | 75.13416 | -21.06593 | 38205 ft | 428 kts | 290° |
| 2026-04-22 17:00 | 75.15966 | -21.27501 | 38204 ft | 430 kts | 290° |
| 2026-04-22 17:00 | 75.18106 | -21.45233 | 38195 ft | 431 kts | 290° |
| 2026-04-22 17:01 | 75.20474 | -21.65044 | 38181 ft | 432 kts | 289° |
| 2026-04-22 17:01 | 75.23001 | -21.86403 | 38187 ft | 432 kts | 289° |
| 2026-04-22 17:02 | 75.25505 | -22.07815 | 38178 ft | 432 kts | 289° |
| 2026-04-22 17:02 | 75.27994 | -22.29343 | 38163 ft | 432 kts | 289° |
| 2026-04-22 17:03 | 75.30445 | -22.50775 | 38165 ft | 432 kts | 289° |
| 2026-04-22 17:03 | 75.32890 | -22.72400 | 38168 ft | 431 kts | 289° |
| 2026-04-22 17:04 | 75.35304 | -22.94001 | 38148 ft | 429 kts | 289° |
| 2026-04-22 17:04 | 75.37691 | -23.15611 | 38181 ft | 427 kts | 289° |
| 2026-04-22 17:05 | 75.40047 | -23.37182 | 38174 ft | 426 kts | 289° |
| 2026-04-22 17:05 | 75.42376 | -23.58757 | 38184 ft | 424 kts | 289° |
| 2026-04-22 17:06 | 75.44665 | -23.80213 | 38187 ft | 424 kts | 288° |
| 2026-04-22 17:06 | 75.46941 | -24.01797 | 38184 ft | 423 kts | 288° |
| 2026-04-22 17:07 | 75.49193 | -24.23404 | 38187 ft | 421 kts | 288° |
| 2026-04-22 17:07 | 75.51422 | -24.45049 | 38181 ft | 420 kts | 288° |
| 2026-04-22 17:08 | 75.53620 | -24.66645 | 38181 ft | 418 kts | 287° |
| 2026-04-22 17:08 | 75.55788 | -24.88201 | 38178 ft | 416 kts | 287° |
| 2026-04-22 17:09 | 75.57915 | -25.09608 | 38181 ft | 415 kts | 287° |
| 2026-04-22 17:09 | 75.60028 | -25.31124 | 38181 ft | 413 kts | 287° |
| 2026-04-22 17:10 | 75.62110 | -25.52591 | 38176 ft | 411 kts | 286° |
| 2026-04-22 17:10 | 75.64167 | -25.74060 | 38175 ft | 410 kts | 286° |
| 2026-04-22 17:11 | 75.66200 | -25.95537 | 38180 ft | 409 kts | 285° |
| 2026-04-22 17:11 | 75.68208 | -26.17017 | 38177 ft | 408 kts | 285° |
| 2026-04-22 17:12 | 75.70191 | -26.38492 | 38172 ft | 407 kts | 285° |
| 2026-04-22 17:12 | 75.72152 | -26.60000 | 38179 ft | 407 kts | 285° |
| 2026-04-22 17:13 | 75.74087 | -26.81483 | 38182 ft | 408 kts | 284° |
| 2026-04-22 17:13 | 75.76018 | -27.03203 | 38187 ft | 409 kts | 284° |
| 2026-04-22 17:14 | 75.77932 | -27.25007 | 38191 ft | 410 kts | 284° |
| 2026-04-22 17:14 | 75.79831 | -27.46928 | 38191 ft | 411 kts | 284° |
| 2026-04-22 17:15 | 75.81715 | -27.68962 | 38192 ft | 412 kts | 283° |
| 2026-04-22 17:15 | 75.83571 | -27.90955 | 38193 ft | 412 kts | 283° |
| 2026-04-22 17:16 | 75.85422 | -28.13186 | 38186 ft | 413 kts | 283° |
| 2026-04-22 17:16 | 75.87256 | -28.35515 | 38182 ft | 414 kts | 283° |
| 2026-04-22 17:17 | 75.89070 | -28.57917 | 38175 ft | 415 kts | 282° |
| 2026-04-22 17:17 | 75.90858 | -28.80306 | 38174 ft | 415 kts | 282° |
| 2026-04-22 17:18 | 75.92637 | -29.02889 | 38160 ft | 416 kts | 282° |
| 2026-04-22 17:18 | 75.94399 | -29.25584 | 38160 ft | 417 kts | 282° |
| 2026-04-22 17:19 | 75.97588 | -29.67475 | 38151 ft | 419 kts | 281° |
| 2026-04-22 17:20 | 76.00314 | -30.13775 | 38148 ft | 412 kts | 270° |
| 2026-04-22 17:21 | 76.00957 | -30.49285 | 38143 ft | 413 kts | 270° |
| 2026-04-22 17:22 | 76.01573 | -30.84905 | 38149 ft | 414 kts | 270° |
| 2026-04-22 17:23 | 76.02153 | -31.20612 | 38157 ft | 415 kts | 269° |
| 2026-04-22 17:23 | 76.02681 | -31.56158 | 38151 ft | 414 kts | 269° |
| 2026-04-22 17:24 | 76.03005 | -31.79989 | 38158 ft | 414 kts | 269° |
| 2026-04-22 17:24 | 76.03306 | -32.03757 | 38154 ft | 413 kts | 268° |
| 2026-04-22 17:25 | 76.03582 | -32.27501 | 38150 ft | 413 kts | 268° |
| 2026-04-22 17:25 | 76.03836 | -32.51187 | 37882 ft | 405 kts | 267° |
| 2026-04-22 17:26 | 76.03954 | -32.62740 | 38010 ft | 399 kts | 267° |
| 2026-04-22 17:26 | 76.04064 | -32.74149 | 38072 ft | 396 kts | 267° |
| 2026-04-22 17:26 | 76.04262 | -32.96989 | 38140 ft | 396 kts | 266° |
| 2026-04-22 17:27 | 76.04438 | -33.19848 | 38144 ft | 398 kts | 266° |
| 2026-04-22 17:27 | 76.04595 | -33.42788 | 38161 ft | 400 kts | 266° |
| 2026-04-22 17:28 | 76.04732 | -33.65780 | 38150 ft | 402 kts | 266° |
| 2026-04-22 17:28 | 76.04848 | -33.89004 | 38156 ft | 403 kts | 265° |
| 2026-04-22 17:29 | 76.04943 | -34.12293 | 38144 ft | 405 kts | 265° |
| 2026-04-22 17:29 | 76.05017 | -34.35651 | 38147 ft | 406 kts | 265° |
| 2026-04-22 17:30 | 76.05068 | -34.59041 | 38144 ft | 406 kts | 265° |
| 2026-04-22 17:30 | 76.05079 | -34.66797 | 38142 ft | 406 kts | 265° |
| 2026-04-22 17:31 | 76.05100 | -34.89331 | 38144 ft | 406 kts | 264° |
| 2026-04-22 17:31 | 76.05100 | -35.12754 | 38150 ft | 406 kts | 264° |
| 2026-04-22 17:32 | 76.05077 | -35.36194 | 38144 ft | 406 kts | 264° |
| 2026-04-22 17:32 | 76.05032 | -35.59590 | 38136 ft | 406 kts | 264° |
| 2026-04-22 17:33 | 76.04964 | -35.82986 | 38129 ft | 405 kts | 263° |
| 2026-04-22 17:33 | 76.04875 | -36.06200 | 38137 ft | 405 kts | 263° |
| 2026-04-22 17:34 | 76.04762 | -36.29577 | 38136 ft | 405 kts | 263° |
| 2026-04-22 17:34 | 76.04698 | -36.41237 | 38414 ft | 406 kts | 263° |
| 2026-04-22 17:34 | 76.04626 | -36.53039 | 38276 ft | 412 kts | 264° |
| 2026-04-22 17:35 | 76.04462 | -36.76995 | 38183 ft | 419 kts | 264° |
| 2026-04-22 17:35 | 76.04275 | -37.01177 | 38147 ft | 424 kts | 263° |
| 2026-04-22 17:36 | 76.04063 | -37.25715 | 38140 ft | 428 kts | 263° |
| 2026-04-22 17:36 | 76.03826 | -37.50347 | 38132 ft | 426 kts | 263° |
| 2026-04-22 17:37 | 76.03569 | -37.74612 | 38127 ft | 418 kts | 263° |
| 2026-04-22 17:37 | 76.03288 | -37.98621 | 38135 ft | 417 kts | 262° |
| 2026-04-22 17:38 | 76.02983 | -38.22579 | 38132 ft | 417 kts | 262° |
| 2026-04-22 17:38 | 76.02656 | -38.46418 | 38140 ft | 418 kts | 262° |
| 2026-04-22 17:39 | 76.02303 | -38.70467 | 38141 ft | 420 kts | 262° |
| 2026-04-22 17:40 | 76.01726 | -39.06753 | 38140 ft | 423 kts | 262° |
| 2026-04-22 17:40 | 76.01310 | -39.31057 | 38138 ft | 424 kts | 261° |
| 2026-04-22 17:41 | 76.00869 | -39.55427 | 38139 ft | 426 kts | 261° |
| 2026-04-22 17:41 | 76.00406 | -39.79881 | 38141 ft | 428 kts | 261° |
| 2026-04-22 17:42 | 76.00096 | -40.04326 | 38145 ft | 432 kts | 266° |
| 2026-04-22 17:42 | 76.00532 | -40.29222 | 38140 ft | 435 kts | 269° |
| 2026-04-22 17:43 | 76.01022 | -40.54182 | 38133 ft | 435 kts | 269° |
| 2026-04-22 17:43 | 76.01476 | -40.79170 | 38130 ft | 436 kts | 269° |
| 2026-04-22 17:44 | 76.01897 | -41.04128 | 38130 ft | 435 kts | 269° |
| 2026-04-22 17:44 | 76.02290 | -41.29119 | 38127 ft | 435 kts | 268° |
| 2026-04-22 17:45 | 76.02654 | -41.53932 | 38125 ft | 435 kts | 268° |
| 2026-04-22 17:45 | 76.02995 | -41.78903 | 38130 ft | 435 kts | 268° |
| 2026-04-22 17:46 | 76.03311 | -42.03901 | 38121 ft | 434 kts | 268° |
| 2026-04-22 17:46 | 76.03601 | -42.28899 | 38125 ft | 434 kts | 267° |
| 2026-04-22 17:47 | 76.03866 | -42.53891 | 38126 ft | 434 kts | 267° |
| 2026-04-22 17:47 | 76.04105 | -42.78910 | 38132 ft | 434 kts | 267° |
| 2026-04-22 17:48 | 76.04284 | -42.99733 | 38135 ft | 435 kts | 267° |
| 2026-04-22 17:48 | 76.04505 | -43.28830 | 38139 ft | 435 kts | 266° |
| 2026-04-22 17:49 | 76.04668 | -43.53900 | 38149 ft | 435 kts | 266° |
| 2026-04-22 17:49 | 76.04805 | -43.79005 | 38150 ft | 436 kts | 266° |
| 2026-04-22 17:50 | 76.04917 | -44.04139 | 38162 ft | 436 kts | 266° |
| 2026-04-22 17:50 | 76.05003 | -44.29313 | 38167 ft | 437 kts | 265° |
| 2026-04-22 17:51 | 76.05063 | -44.54494 | 38172 ft | 437 kts | 265° |
| 2026-04-22 17:51 | 76.05097 | -44.79683 | 38179 ft | 437 kts | 265° |
| 2026-04-22 17:52 | 76.05105 | -45.04715 | 38186 ft | 437 kts | 265° |
| 2026-04-22 17:52 | 76.05088 | -45.29923 | 38190 ft | 437 kts | 265° |
| 2026-04-22 17:53 | 76.05044 | -45.55116 | 38196 ft | 437 kts | 264° |
| 2026-04-22 17:53 | 76.04975 | -45.80288 | 38199 ft | 437 kts | 264° |
| 2026-04-22 17:54 | 76.04880 | -46.05506 | 38195 ft | 437 kts | 264° |
| 2026-04-22 17:54 | 76.04759 | -46.30680 | 38199 ft | 436 kts | 264° |
| 2026-04-22 17:55 | 76.04639 | -46.51565 | 38204 ft | 436 kts | 263° |
| 2026-04-22 17:55 | 76.04439 | -46.80951 | 38205 ft | 436 kts | 263° |
| 2026-04-22 17:56 | 76.04241 | -47.06058 | 38213 ft | 436 kts | 263° |
| 2026-04-22 17:56 | 76.04019 | -47.30974 | 38221 ft | 436 kts | 263° |
| 2026-04-22 17:57 | 76.03769 | -47.56083 | 38220 ft | 436 kts | 263° |
| 2026-04-22 17:57 | 76.03494 | -47.81192 | 38212 ft | 436 kts | 262° |
| 2026-04-22 17:58 | 76.03193 | -48.06257 | 38216 ft | 435 kts | 262° |
| 2026-04-22 17:58 | 76.02869 | -48.31120 | 38211 ft | 435 kts | 262° |
| 2026-04-22 17:59 | 76.02517 | -48.56165 | 38211 ft | 435 kts | 262° |
| 2026-04-22 17:59 | 76.02140 | -48.81195 | 38212 ft | 435 kts | 261° |
| 2026-04-22 18:00 | 76.01807 | -49.01959 | 38211 ft | 435 kts | 261° |
| 2026-04-22 18:00 | 76.01313 | -49.30976 | 38209 ft | 435 kts | 261° |
| 2026-04-22 18:01 | 76.00861 | -49.55897 | 38210 ft | 434 kts | 261° |
| 2026-04-22 18:01 | 76.00388 | -49.80805 | 38211 ft | 434 kts | 260° |
| 2026-04-22 18:02 | 76.00100 | -50.05814 | 38214 ft | 438 kts | 266° |
| 2026-04-22 18:02 | 76.00560 | -50.30860 | 38210 ft | 441 kts | 269° |
| 2026-04-22 18:03 | 76.01057 | -50.56094 | 38217 ft | 441 kts | 268° |
| 2026-04-22 18:03 | 76.01515 | -50.81374 | 38211 ft | 441 kts | 268° |
| 2026-04-22 18:04 | 76.01939 | -51.06691 | 38208 ft | 441 kts | 268° |
| 2026-04-22 18:04 | 76.02334 | -51.32045 | 38207 ft | 441 kts | 268° |
| 2026-04-22 18:05 | 76.02703 | -51.57421 | 38214 ft | 441 kts | 267° |
| 2026-04-22 18:05 | 76.03047 | -51.82872 | 38347 ft | 443 kts | 267° |
| 2026-04-22 18:05 | 76.03208 | -51.95587 | 38484 ft | 443 kts | 267° |
| 2026-04-22 18:06 | 76.03364 | -52.08349 | 38608 ft | 443 kts | 267° |
| 2026-04-22 18:06 | 76.03654 | -52.33761 | 38721 ft | 446 kts | 267° |
| 2026-04-22 18:07 | 76.03878 | -52.55287 | 38853 ft | 447 kts | 266° |
| 2026-04-22 18:07 | 76.04160 | -52.85287 | 38979 ft | 450 kts | 266° |
| 2026-04-22 18:08 | 76.04342 | -53.07020 | 39052 ft | 451 kts | 266° |
| 2026-04-22 18:08 | 76.04533 | -53.32869 | 39163 ft | 452 kts | 266° |
| 2026-04-22 18:09 | 76.04697 | -53.58955 | 39257 ft | 453 kts | 265° |
| 2026-04-22 18:09 | 76.04834 | -53.85127 | 39332 ft | 455 kts | 265° |
| 2026-04-22 18:10 | 76.04944 | -54.11417 | 39405 ft | 456 kts | 265° |
| 2026-04-22 18:10 | 76.05025 | -54.37714 | 39495 ft | 457 kts | 265° |
| 2026-04-22 18:11 | 76.05078 | -54.64080 | 39559 ft | 458 kts | 265° |
| 2026-04-22 18:11 | 76.05101 | -54.86059 | 39616 ft | 459 kts | 264° |
| 2026-04-22 18:12 | 76.05105 | -54.96387 | 39634 ft | 459 kts | 264° |
| 2026-04-22 18:12 | 76.05095 | -55.22883 | 39708 ft | 460 kts | 264° |
| 2026-04-22 18:13 | 76.05056 | -55.49404 | 39759 ft | 461 kts | 264° |
| 2026-04-22 18:13 | 76.04988 | -55.75996 | 39812 ft | 462 kts | 264° |
| 2026-04-22 18:14 | 76.04892 | -56.02610 | 39871 ft | 462 kts | 263° |
| 2026-04-22 18:14 | 76.04766 | -56.29253 | 39921 ft | 463 kts | 263° |
| 2026-04-22 18:15 | 76.04612 | -56.55807 | 39969 ft | 463 kts | 263° |
| 2026-04-22 18:15 | 76.04427 | -56.82524 | 40011 ft | 464 kts | 263° |
| 2026-04-22 18:16 | 76.04214 | -57.09259 | 40046 ft | 464 kts | 263° |
| 2026-04-22 18:16 | 76.03970 | -57.36040 | 40083 ft | 465 kts | 262° |
| 2026-04-22 18:17 | 76.03698 | -57.62798 | 40172 ft | 464 kts | 262° |
| 2026-04-22 18:17 | 76.03398 | -57.89455 | 40267 ft | 463 kts | 262° |
| 2026-04-22 18:18 | 76.03069 | -58.16030 | 40295 ft | 463 kts | 262° |
| 2026-04-22 18:18 | 76.02712 | -58.42529 | 40306 ft | 464 kts | 261° |
| 2026-04-22 18:19 | 76.02323 | -58.69239 | 40299 ft | 465 kts | 261° |
| 2026-04-22 18:19 | 76.01905 | -58.95956 | 40301 ft | 466 kts | 261° |
| 2026-04-22 18:20 | 76.01457 | -59.22716 | 40298 ft | 467 kts | 261° |
| 2026-04-22 18:20 | 76.00979 | -59.49510 | 40300 ft | 467 kts | 260° |
| 2026-04-22 18:21 | 76.00477 | -59.76313 | 40299 ft | 468 kts | 260° |
| 2026-04-22 18:21 | 75.99779 | -60.03007 | 40299 ft | 465 kts | 255° |
| 2026-04-22 18:22 | 75.98195 | -60.28692 | 40305 ft | 461 kts | 250° |
| 2026-04-22 18:22 | 75.96470 | -60.54170 | 40300 ft | 462 kts | 250° |
| 2026-04-22 18:23 | 75.94739 | -60.79676 | 40298 ft | 462 kts | 250° |
| 2026-04-22 18:23 | 75.93000 | -61.05117 | 40295 ft | 463 kts | 250° |
| 2026-04-22 18:24 | 75.90342 | -61.43266 | 40301 ft | 463 kts | 249° |
| 2026-04-22 18:25 | 75.87631 | -61.81169 | 40296 ft | 464 kts | 249° |
| 2026-04-22 18:25 | 75.85782 | -62.06463 | 40302 ft | 464 kts | 249° |
| 2026-04-22 18:26 | 75.82952 | -62.44385 | 40303 ft | 465 kts | 249° |
| 2026-04-22 18:26 | 75.81044 | -62.69422 | 40296 ft | 465 kts | 248° |
| 2026-04-22 18:27 | 75.79096 | -62.94583 | 40298 ft | 465 kts | 248° |
| 2026-04-22 18:27 | 75.77121 | -63.19675 | 40308 ft | 465 kts | 248° |
| 2026-04-22 18:28 | 75.75123 | -63.44675 | 40309 ft | 466 kts | 248° |
| 2026-04-22 18:28 | 75.73096 | -63.69632 | 40310 ft | 466 kts | 247° |
| 2026-04-22 18:29 | 75.71054 | -63.94389 | 40317 ft | 466 kts | 247° |
| 2026-04-22 18:29 | 75.68974 | -64.19230 | 40317 ft | 466 kts | 247° |
| 2026-04-22 18:30 | 75.65801 | -64.56407 | 40321 ft | 467 kts | 246° |
| 2026-04-22 18:31 | 75.63654 | -64.81100 | 40327 ft | 467 kts | 246° |
| 2026-04-22 18:31 | 75.61475 | -65.05788 | 40325 ft | 467 kts | 246° |
| 2026-04-22 18:32 | 75.59274 | -65.30363 | 40325 ft | 467 kts | 246° |
| 2026-04-22 18:32 | 75.57048 | -65.54868 | 40333 ft | 467 kts | 245° |
| 2026-04-22 18:33 | 75.54795 | -65.79315 | 40335 ft | 468 kts | 245° |
| 2026-04-22 18:33 | 75.52531 | -66.03530 | 40339 ft | 468 kts | 245° |
| 2026-04-22 18:34 | 75.50225 | -66.27861 | 40339 ft | 468 kts | 245° |
| 2026-04-22 18:34 | 75.47894 | -66.52117 | 40337 ft | 468 kts | 245° |
| 2026-04-22 18:35 | 75.45537 | -66.76308 | 40346 ft | 468 kts | 244° |
| 2026-04-22 18:35 | 75.43155 | -67.00418 | 40343 ft | 469 kts | 244° |
| 2026-04-22 18:36 | 75.40745 | -67.24488 | 40345 ft | 469 kts | 244° |
| 2026-04-22 18:36 | 75.38308 | -67.48500 | 40348 ft | 469 kts | 244° |
| 2026-04-22 18:37 | 75.35863 | -67.72281 | 40355 ft | 469 kts | 244° |
| 2026-04-22 18:37 | 75.33782 | -67.92273 | 40356 ft | 470 kts | 243° |
| 2026-04-22 18:38 | 75.30866 | -68.19931 | 40358 ft | 470 kts | 243° |
| 2026-04-22 18:38 | 75.28329 | -68.43655 | 40363 ft | 470 kts | 243° |
| 2026-04-22 18:39 | 75.24474 | -68.79135 | 40364 ft | 471 kts | 243° |
| 2026-04-22 18:39 | 75.21868 | -69.02741 | 40369 ft | 471 kts | 243° |
| 2026-04-22 18:40 | 75.19260 | -69.26072 | 40371 ft | 471 kts | 242° |
| 2026-04-22 18:40 | 75.16606 | -69.49520 | 40374 ft | 472 kts | 242° |
| 2026-04-22 18:41 | 75.13923 | -69.72930 | 40376 ft | 472 kts | 242° |
| 2026-04-22 18:41 | 75.13031 | -69.80653 | 40379 ft | 472 kts | 242° |
| 2026-04-22 18:42 | 75.10424 | -70.03033 | 40377 ft | 473 kts | 242° |
| 2026-04-22 18:42 | 75.07687 | -70.26258 | 40384 ft | 473 kts | 242° |
| 2026-04-22 18:43 | 75.04925 | -70.49413 | 40382 ft | 473 kts | 241° |
| 2026-04-22 18:43 | 75.02156 | -70.72350 | 40385 ft | 474 kts | 241° |
| 2026-04-22 18:44 | 74.99343 | -70.95378 | 40390 ft | 474 kts | 241° |
| 2026-04-22 18:44 | 74.96502 | -71.18362 | 40391 ft | 474 kts | 241° |
| 2026-04-22 18:45 | 74.93635 | -71.41287 | 40393 ft | 475 kts | 240° |
| 2026-04-22 18:45 | 74.90746 | -71.64116 | 40392 ft | 475 kts | 240° |
| 2026-04-22 18:46 | 74.87833 | -71.86871 | 40398 ft | 476 kts | 240° |
| 2026-04-22 18:46 | 74.84917 | -72.09393 | 40395 ft | 476 kts | 240° |
| 2026-04-22 18:47 | 74.81956 | -72.32021 | 40397 ft | 476 kts | 240° |
| 2026-04-22 18:47 | 74.78972 | -72.54575 | 40401 ft | 476 kts | 240° |
| 2026-04-22 18:48 | 74.75981 | -72.77081 | 40403 ft | 477 kts | 240° |
| 2026-04-22 18:48 | 74.72975 | -72.99594 | 40403 ft | 477 kts | 239° |
| 2026-04-22 18:49 | 74.69952 | -73.22009 | 40403 ft | 477 kts | 239° |
| 2026-04-22 18:49 | 74.66904 | -73.44339 | 40406 ft | 478 kts | 239° |
| 2026-04-22 18:50 | 74.63849 | -73.66463 | 40409 ft | 478 kts | 239° |
| 2026-04-22 18:50 | 74.60746 | -73.88681 | 40407 ft | 478 kts | 239° |
| 2026-04-22 18:51 | 74.57626 | -74.10780 | 40406 ft | 478 kts | 239° |
| 2026-04-22 18:51 | 74.54481 | -74.32814 | 40408 ft | 479 kts | 238° |
| 2026-04-22 18:52 | 74.51332 | -74.54636 | 40408 ft | 479 kts | 238° |
| 2026-04-22 18:52 | 74.48145 | -74.76490 | 40416 ft | 479 kts | 238° |
| 2026-04-22 18:53 | 74.45453 | -74.94767 | 40411 ft | 479 kts | 238° |
| 2026-04-22 18:53 | 74.42237 | -75.16388 | 40421 ft | 480 kts | 238° |
| 2026-04-22 18:54 | 74.38977 | -75.38079 | 40416 ft | 480 kts | 238° |
| 2026-04-22 18:54 | 74.35696 | -75.59676 | 40417 ft | 480 kts | 237° |
| 2026-04-22 18:55 | 74.32394 | -75.81187 | 40420 ft | 481 kts | 237° |
| 2026-04-22 18:55 | 74.29068 | -76.02625 | 40419 ft | 481 kts | 237° |
| 2026-04-22 18:56 | 74.25718 | -76.23996 | 40420 ft | 481 kts | 237° |
| 2026-04-22 18:56 | 74.22346 | -76.45288 | 40419 ft | 482 kts | 237° |
| 2026-04-22 18:57 | 74.18951 | -76.66507 | 40419 ft | 482 kts | 237° |
| 2026-04-22 18:57 | 74.15556 | -76.87505 | 40421 ft | 482 kts | 236° |
| 2026-04-22 18:58 | 74.12116 | -77.08572 | 40423 ft | 482 kts | 236° |
| 2026-04-22 18:58 | 74.08659 | -77.29531 | 40423 ft | 482 kts | 236° |
| 2026-04-22 18:59 | 74.05178 | -77.50421 | 40423 ft | 483 kts | 236° |
| 2026-04-22 18:59 | 74.01674 | -77.71240 | 40424 ft | 483 kts | 236° |
| 2026-04-22 19:00 | 73.98143 | -77.92011 | 40423 ft | 483 kts | 236° |
| 2026-04-22 19:00 | 73.94619 | -78.12539 | 40422 ft | 483 kts | 236° |
| 2026-04-22 19:01 | 73.91051 | -78.33118 | 40429 ft | 483 kts | 235° |
| 2026-04-22 19:01 | 73.87465 | -78.53604 | 40422 ft | 484 kts | 235° |
| 2026-04-22 19:02 | 73.83857 | -78.74009 | 40426 ft | 484 kts | 235° |
| 2026-04-22 19:02 | 73.80231 | -78.94322 | 40441 ft | 484 kts | 235° |
| 2026-04-22 19:03 | 73.76579 | -79.14585 | 40421 ft | 484 kts | 234° |
| 2026-04-22 19:03 | 73.72908 | -79.34754 | 40421 ft | 484 kts | 234° |
| 2026-04-22 19:04 | 73.69221 | -79.54821 | 40416 ft | 484 kts | 234° |
| 2026-04-22 19:04 | 73.65509 | -79.74830 | 40412 ft | 484 kts | 234° |
| 2026-04-22 19:05 | 73.61807 | -79.94599 | 40412 ft | 484 kts | 234° |
| 2026-04-22 19:05 | 73.58062 | -80.14412 | 40417 ft | 484 kts | 234° |
| 2026-04-22 19:06 | 73.54294 | -80.34162 | 40420 ft | 484 kts | 233° |
| 2026-04-22 19:07 | 73.48602 | -80.63653 | 40417 ft | 486 kts | 233° |
| 2026-04-22 19:07 | 73.44776 | -80.83237 | 40422 ft | 486 kts | 233° |
| 2026-04-22 19:08 | 73.40929 | -81.02748 | 40413 ft | 486 kts | 233° |
| 2026-04-22 19:08 | 73.37069 | -81.22159 | 40413 ft | 486 kts | 233° |
| 2026-04-22 19:09 | 73.33208 | -81.41388 | 40414 ft | 487 kts | 233° |
| 2026-04-22 19:09 | 73.29306 | -81.60649 | 40412 ft | 487 kts | 233° |
| 2026-04-22 19:10 | 73.25381 | -81.79847 | 40399 ft | 487 kts | 232° |
| 2026-04-22 19:10 | 73.21438 | -81.98963 | 40408 ft | 487 kts | 232° |
| 2026-04-22 19:11 | 73.17479 | -82.17983 | 40404 ft | 487 kts | 232° |
| 2026-04-22 19:11 | 73.14173 | -82.33735 | 40398 ft | 487 kts | 232° |
| 2026-04-22 19:12 | 73.12274 | -82.42728 | 40399 ft | 487 kts | 232° |
| 2026-04-22 19:12 | 73.08276 | -82.61550 | 40403 ft | 488 kts | 232° |
| 2026-04-22 19:13 | 73.04257 | -82.80302 | 40402 ft | 488 kts | 232° |
| 2026-04-22 19:13 | 73.00214 | -82.99017 | 40406 ft | 488 kts | 232° |
| 2026-04-22 19:14 | 72.96128 | -83.17524 | 40412 ft | 488 kts | 231° |
| 2026-04-22 19:14 | 72.91999 | -83.35880 | 40412 ft | 488 kts | 231° |
| 2026-04-22 19:15 | 72.88550 | -83.51106 | 40418 ft | 489 kts | 231° |
| 2026-04-22 19:15 | 72.83719 | -83.72305 | 40425 ft | 489 kts | 231° |
| 2026-04-22 19:16 | 72.79543 | -83.90477 | 40426 ft | 489 kts | 230° |
| 2026-04-22 19:16 | 72.75350 | -84.08567 | 40432 ft | 489 kts | 230° |
| 2026-04-22 19:17 | 72.71142 | -84.26568 | 40435 ft | 489 kts | 230° |
| 2026-04-22 19:17 | 72.66915 | -84.44494 | 40439 ft | 489 kts | 230° |
| 2026-04-22 19:18 | 72.62674 | -84.62329 | 40442 ft | 489 kts | 230° |
| 2026-04-22 19:18 | 72.58442 | -84.79976 | 40448 ft | 490 kts | 230° |
| 2026-04-22 19:19 | 72.54169 | -84.97646 | 40440 ft | 490 kts | 230° |
| 2026-04-22 19:19 | 72.49869 | -85.15279 | 40446 ft | 490 kts | 230° |
| 2026-04-22 19:20 | 72.45560 | -85.32799 | 40449 ft | 490 kts | 229° |
| 2026-04-22 19:20 | 72.41231 | -85.50255 | 40441 ft | 490 kts | 229° |
| 2026-04-22 19:21 | 72.36888 | -85.67625 | 40440 ft | 490 kts | 229° |
| 2026-04-22 19:21 | 72.32529 | -85.84917 | 40439 ft | 490 kts | 229° |
| 2026-04-22 19:22 | 72.28154 | -86.02127 | 40436 ft | 490 kts | 229° |
| 2026-04-22 19:22 | 72.23794 | -86.19138 | 40436 ft | 490 kts | 229° |
| 2026-04-22 19:23 | 72.19386 | -86.36199 | 40437 ft | 490 kts | 229° |
| 2026-04-22 19:23 | 72.14969 | -86.53157 | 40435 ft | 490 kts | 228° |
| 2026-04-22 19:24 | 72.10536 | -86.70041 | 40435 ft | 490 kts | 228° |
| 2026-04-22 19:24 | 72.06086 | -86.86850 | 40435 ft | 491 kts | 228° |
| 2026-04-22 19:25 | 72.01618 | -87.03590 | 40433 ft | 491 kts | 228° |
| 2026-04-22 19:25 | 71.97165 | -87.20143 | 40433 ft | 491 kts | 228° |
| 2026-04-22 19:26 | 71.92670 | -87.36723 | 40438 ft | 491 kts | 228° |
| 2026-04-22 19:26 | 71.88158 | -87.53233 | 40431 ft | 491 kts | 227° |
| 2026-04-22 19:27 | 71.83630 | -87.69670 | 40434 ft | 491 kts | 227° |
| 2026-04-22 19:27 | 71.79084 | -87.86043 | 40436 ft | 491 kts | 227° |
| 2026-04-22 19:28 | 71.74528 | -88.02322 | 40437 ft | 491 kts | 227° |
| 2026-04-22 19:28 | 71.69977 | -88.18456 | 40438 ft | 491 kts | 227° |
| 2026-04-22 19:29 | 71.65381 | -88.34626 | 40433 ft | 492 kts | 227° |
| 2026-04-22 19:29 | 71.60783 | -88.50678 | 40437 ft | 492 kts | 227° |
| 2026-04-22 19:30 | 71.56944 | -88.63982 | 40436 ft | 492 kts | 227° |
| 2026-04-22 19:30 | 71.51534 | -88.82588 | 40436 ft | 492 kts | 227° |
| 2026-04-22 19:31 | 71.46886 | -88.98440 | 40441 ft | 492 kts | 226° |
| 2026-04-22 19:31 | 71.42262 | -89.14092 | 40446 ft | 492 kts | 226° |
| 2026-04-22 19:32 | 71.37587 | -89.29798 | 40445 ft | 493 kts | 226° |
| 2026-04-22 19:32 | 71.32899 | -89.45424 | 40444 ft | 493 kts | 226° |
| 2026-04-22 19:33 | 71.28199 | -89.60975 | 40445 ft | 493 kts | 226° |
| 2026-04-22 19:33 | 71.23484 | -89.76456 | 40441 ft | 493 kts | 226° |
| 2026-04-22 19:34 | 71.18758 | -89.91858 | 40437 ft | 493 kts | 226° |
| 2026-04-22 19:34 | 71.14019 | -90.07185 | 40433 ft | 493 kts | 226° |
| 2026-04-22 19:35 | 71.09267 | -90.22441 | 40434 ft | 493 kts | 226° |
| 2026-04-22 19:35 | 71.05301 | -90.35085 | 40430 ft | 493 kts | 225° |
| 2026-04-22 19:36 | 70.99744 | -90.52672 | 40434 ft | 493 kts | 225° |
| 2026-04-22 19:36 | 70.94954 | -90.67712 | 40429 ft | 493 kts | 225° |
| 2026-04-22 19:37 | 70.90148 | -90.82691 | 40421 ft | 493 kts | 225° |
| 2026-04-22 19:37 | 70.85337 | -90.97574 | 40420 ft | 493 kts | 225° |
| 2026-04-22 19:38 | 70.80505 | -91.12415 | 40424 ft | 493 kts | 225° |
| 2026-04-22 19:38 | 70.75664 | -91.27174 | 40424 ft | 493 kts | 225° |
| 2026-04-22 19:39 | 70.71624 | -91.39411 | 40418 ft | 493 kts | 225° |
| 2026-04-22 19:39 | 70.66759 | -91.54047 | 40416 ft | 493 kts | 225° |
| 2026-04-22 19:40 | 70.61879 | -91.68621 | 40414 ft | 494 kts | 225° |
| 2026-04-22 19:40 | 70.56989 | -91.83122 | 40416 ft | 494 kts | 225° |
| 2026-04-22 19:41 | 70.52086 | -91.97559 | 40410 ft | 494 kts | 224° |
| 2026-04-22 19:41 | 70.47252 | -92.11691 | 40410 ft | 494 kts | 224° |
| 2026-04-22 19:42 | 70.45739 | -92.16092 | 40410 ft | 494 kts | 224° |
| 2026-04-22 19:42 | 70.40808 | -92.30373 | 40412 ft | 494 kts | 224° |
| 2026-04-22 19:43 | 70.33383 | -92.51688 | 40410 ft | 494 kts | 224° |
| 2026-04-22 19:43 | 70.28419 | -92.65814 | 40407 ft | 495 kts | 224° |
| 2026-04-22 19:44 | 70.23438 | -92.79888 | 40412 ft | 495 kts | 224° |
| 2026-04-22 19:44 | 70.18447 | -92.93891 | 40412 ft | 495 kts | 224° |
| 2026-04-22 19:45 | 70.13438 | -93.07845 | 40412 ft | 495 kts | 224° |
| 2026-04-22 19:45 | 70.08422 | -93.21722 | 40412 ft | 495 kts | 224° |
| 2026-04-22 19:46 | 70.03394 | -93.35535 | 40413 ft | 496 kts | 224° |
| 2026-04-22 19:46 | 69.98386 | -93.49198 | 40411 ft | 496 kts | 223° |
| 2026-04-22 19:47 | 69.93305 | -93.62966 | 40410 ft | 496 kts | 223° |
| 2026-04-22 19:47 | 69.88241 | -93.76594 | 40407 ft | 496 kts | 223° |
| 2026-04-22 19:48 | 69.83198 | -93.90069 | 40407 ft | 496 kts | 223° |
| 2026-04-22 19:48 | 69.78110 | -94.03575 | 40406 ft | 496 kts | 223° |
| 2026-04-22 19:49 | 69.73010 | -94.17017 | 40402 ft | 496 kts | 223° |
| 2026-04-22 19:49 | 69.67898 | -94.30401 | 40399 ft | 496 kts | 223° |
| 2026-04-22 19:50 | 69.62777 | -94.43719 | 40393 ft | 496 kts | 223° |
| 2026-04-22 19:50 | 69.57648 | -94.56967 | 40391 ft | 496 kts | 223° |
| 2026-04-22 19:51 | 69.52512 | -94.70143 | 40389 ft | 496 kts | 223° |
| 2026-04-22 19:51 | 69.47362 | -94.83266 | 40385 ft | 496 kts | 223° |
| 2026-04-22 19:52 | 69.42234 | -94.96248 | 40382 ft | 496 kts | 223° |
| 2026-04-22 19:52 | 69.37058 | -95.09262 | 40375 ft | 496 kts | 222° |
| 2026-04-22 19:53 | 69.31884 | -95.22185 | 40374 ft | 496 kts | 222° |
| 2026-04-22 19:53 | 69.26690 | -95.35074 | 40375 ft | 496 kts | 222° |
| 2026-04-22 19:54 | 69.21492 | -95.47888 | 40366 ft | 496 kts | 222° |
| 2026-04-22 19:54 | 69.16284 | -95.60642 | 40365 ft | 496 kts | 222° |
| 2026-04-22 19:55 | 69.11096 | -95.73265 | 40373 ft | 496 kts | 222° |
| 2026-04-22 19:55 | 69.05873 | -95.85892 | 40390 ft | 496 kts | 222° |
| 2026-04-22 19:56 | 69.00637 | -95.98475 | 40392 ft | 496 kts | 222° |
| 2026-04-22 19:56 | 68.95440 | -96.11129 | 40395 ft | 496 kts | 223° |
| 2026-04-22 19:57 | 68.90326 | -96.23809 | 40402 ft | 496 kts | 223° |
| 2026-04-22 19:57 | 68.85170 | -96.36524 | 40417 ft | 495 kts | 223° |
| 2026-04-22 19:58 | 68.80004 | -96.49137 | 40428 ft | 495 kts | 223° |
| 2026-04-22 19:58 | 68.74821 | -96.61680 | 40435 ft | 495 kts | 223° |
| 2026-04-22 20:00 | 68.56646 | -97.05030 | 40452 ft | 495 kts | 222° |
| 2026-04-22 20:01 | 68.51429 | -97.17300 | 40474 ft | 495 kts | 222° |
| 2026-04-22 20:01 | 68.46193 | -97.29535 | 40484 ft | 495 kts | 222° |
| 2026-04-22 20:02 | 68.40954 | -97.41699 | 40503 ft | 495 kts | 222° |
| 2026-04-22 20:02 | 68.35715 | -97.53788 | 40510 ft | 495 kts | 222° |
| 2026-04-22 20:03 | 68.30461 | -97.65837 | 40521 ft | 494 kts | 222° |
| 2026-04-22 20:03 | 68.25203 | -97.77817 | 40529 ft | 494 kts | 222° |
| 2026-04-22 20:04 | 68.19941 | -97.89733 | 40541 ft | 494 kts | 221° |
| 2026-04-22 20:04 | 68.14697 | -98.01536 | 40540 ft | 494 kts | 221° |
| 2026-04-22 20:05 | 68.09419 | -98.13341 | 40551 ft | 494 kts | 221° |
| 2026-04-22 20:05 | 68.04123 | -98.25113 | 40583 ft | 494 kts | 221° |
| 2026-04-22 20:06 | 67.98824 | -98.36821 | 40581 ft | 494 kts | 221° |
| 2026-04-22 20:06 | 67.93527 | -98.48452 | 40593 ft | 494 kts | 221° |
| 2026-04-22 20:07 | 67.88212 | -98.60050 | 40597 ft | 494 kts | 221° |
| 2026-04-22 20:07 | 67.82890 | -98.71593 | 40598 ft | 494 kts | 221° |
| 2026-04-22 20:08 | 67.77604 | -98.82990 | 40602 ft | 494 kts | 221° |
| 2026-04-22 20:08 | 67.72269 | -98.94423 | 40624 ft | 494 kts | 221° |
| 2026-04-22 20:09 | 67.66929 | -99.05798 | 40626 ft | 494 kts | 221° |
| 2026-04-22 20:09 | 67.61580 | -99.17124 | 40631 ft | 493 kts | 221° |
| 2026-04-22 20:10 | 67.56227 | -99.28391 | 40639 ft | 493 kts | 221° |
| 2026-04-22 20:10 | 67.50861 | -99.39616 | 40657 ft | 493 kts | 220° |
| 2026-04-22 20:11 | 67.45529 | -99.50705 | 40666 ft | 493 kts | 220° |
| 2026-04-22 20:11 | 67.41027 | -99.60017 | 40669 ft | 493 kts | 220° |
| 2026-04-22 20:12 | 67.38464 | -99.65297 | 40671 ft | 493 kts | 220° |
| 2026-04-22 20:12 | 67.33994 | -99.74472 | 40677 ft | 493 kts | 220° |
| 2026-04-22 20:13 | 67.27692 | -99.87331 | 40685 ft | 493 kts | 220° |
| 2026-04-22 20:13 | 67.22295 | -99.98273 | 40699 ft | 493 kts | 220° |
| 2026-04-22 20:14 | 67.16894 | -100.09158 | 40708 ft | 493 kts | 220° |
| 2026-04-22 20:14 | 67.11519 | -100.19928 | 40735 ft | 493 kts | 220° |
| 2026-04-22 20:15 | 67.06098 | -100.30728 | 40734 ft | 493 kts | 220° |
| 2026-04-22 20:15 | 67.00676 | -100.41468 | 40744 ft | 492 kts | 220° |
| 2026-04-22 20:16 | 66.95253 | -100.52146 | 40752 ft | 492 kts | 220° |
| 2026-04-22 20:16 | 66.89812 | -100.62799 | 40755 ft | 493 kts | 220° |
| 2026-04-22 20:17 | 66.84397 | -100.73341 | 40764 ft | 493 kts | 219° |
| 2026-04-22 20:17 | 66.78949 | -100.83887 | 40772 ft | 493 kts | 219° |
| 2026-04-22 20:18 | 66.73487 | -100.94397 | 40793 ft | 492 kts | 219° |
| 2026-04-22 20:18 | 66.68028 | -101.04844 | 40795 ft | 492 kts | 219° |
| 2026-04-22 20:19 | 66.62556 | -101.15256 | 40804 ft | 492 kts | 219° |
| 2026-04-22 20:19 | 66.57073 | -101.25629 | 40812 ft | 492 kts | 219° |
| 2026-04-22 20:20 | 66.51592 | -101.35940 | 40819 ft | 492 kts | 219° |
| 2026-04-22 20:20 | 66.46133 | -101.46152 | 40827 ft | 492 kts | 219° |
| 2026-04-22 20:21 | 66.40632 | -101.56385 | 40838 ft | 492 kts | 219° |
| 2026-04-22 20:21 | 66.35124 | -101.66575 | 40848 ft | 492 kts | 219° |
| 2026-04-22 20:22 | 66.29609 | -101.76720 | 40853 ft | 492 kts | 219° |
| 2026-04-22 20:22 | 66.24129 | -101.86744 | 40865 ft | 492 kts | 219° |
| 2026-04-22 20:23 | 66.18606 | -101.96792 | 40869 ft | 492 kts | 218° |
| 2026-04-22 20:23 | 66.13074 | -102.06800 | 40883 ft | 492 kts | 218° |
| 2026-04-22 20:24 | 66.07541 | -102.16756 | 40896 ft | 492 kts | 218° |
| 2026-04-22 20:24 | 66.01992 | -102.26684 | 40905 ft | 492 kts | 218° |
| 2026-04-22 20:25 | 65.96443 | -102.36558 | 40919 ft | 492 kts | 218° |
| 2026-04-22 20:25 | 65.90926 | -102.46322 | 40928 ft | 492 kts | 218° |
| 2026-04-22 20:26 | 65.85366 | -102.56109 | 40937 ft | 492 kts | 218° |
| 2026-04-22 20:26 | 65.80734 | -102.64222 | 40949 ft | 492 kts | 218° |
| 2026-04-22 20:27 | 65.75165 | -102.73928 | 40956 ft | 492 kts | 218° |
| 2026-04-22 20:27 | 65.69592 | -102.83587 | 40969 ft | 492 kts | 218° |
| 2026-04-22 20:28 | 65.64008 | -102.93214 | 40984 ft | 492 kts | 218° |
| 2026-04-22 20:28 | 65.58420 | -103.02795 | 40981 ft | 492 kts | 217° |
| 2026-04-22 20:29 | 65.52823 | -103.12342 | 41000 ft | 492 kts | 217° |
| 2026-04-22 20:29 | 65.47226 | -103.21837 | 41006 ft | 492 kts | 217° |
| 2026-04-22 20:30 | 65.41616 | -103.31303 | 41015 ft | 492 kts | 217° |
| 2026-04-22 20:30 | 65.36009 | -103.40714 | 41027 ft | 492 kts | 217° |
| 2026-04-22 20:31 | 65.30427 | -103.50034 | 41040 ft | 492 kts | 217° |
| 2026-04-22 20:31 | 65.24800 | -103.59379 | 41045 ft | 492 kts | 217° |
| 2026-04-22 20:32 | 65.19168 | -103.68683 | 41050 ft | 492 kts | 217° |
| 2026-04-22 20:32 | 65.13527 | -103.77955 | 41063 ft | 492 kts | 217° |
| 2026-04-22 20:33 | 65.07887 | -103.87178 | 41082 ft | 492 kts | 217° |
| 2026-04-22 20:33 | 65.02246 | -103.96359 | 41085 ft | 492 kts | 217° |
| 2026-04-22 20:34 | 64.96557 | -104.05394 | 41090 ft | 492 kts | 215° |
| 2026-04-22 20:34 | 64.90796 | -104.13990 | 41101 ft | 493 kts | 214° |
| 2026-04-22 20:35 | 64.84978 | -104.22563 | 41110 ft | 493 kts | 214° |
| 2026-04-22 20:35 | 64.79172 | -104.31143 | 41113 ft | 492 kts | 214° |
| 2026-04-22 20:36 | 64.73375 | -104.39711 | 41128 ft | 492 kts | 214° |
| 2026-04-22 20:36 | 64.67573 | -104.48252 | 41148 ft | 492 kts | 214° |
| 2026-04-22 20:37 | 64.61806 | -104.56699 | 41154 ft | 492 kts | 214° |
| 2026-04-22 20:37 | 64.56001 | -104.65153 | 41163 ft | 492 kts | 214° |
| 2026-04-22 20:38 | 64.50185 | -104.73581 | 41180 ft | 492 kts | 214° |
| 2026-04-22 20:38 | 64.44368 | -104.81966 | 41185 ft | 492 kts | 214° |
| 2026-04-22 20:39 | 64.38549 | -104.90313 | 41196 ft | 492 kts | 214° |
| 2026-04-22 20:39 | 64.32719 | -104.98632 | 41207 ft | 492 kts | 214° |
| 2026-04-22 20:40 | 64.26883 | -105.06919 | 41214 ft | 492 kts | 214° |
| 2026-04-22 20:40 | 64.21056 | -105.15151 | 41227 ft | 492 kts | 214° |
| 2026-04-22 20:41 | 64.15246 | -105.23318 | 41236 ft | 492 kts | 214° |
| 2026-04-22 20:41 | 64.09409 | -105.31483 | 41243 ft | 491 kts | 214° |
| 2026-04-22 20:42 | 64.03564 | -105.39618 | 41250 ft | 491 kts | 214° |
| 2026-04-22 20:42 | 63.97711 | -105.47725 | 41267 ft | 491 kts | 214° |
| 2026-04-22 20:43 | 63.91902 | -105.55730 | 41275 ft | 491 kts | 214° |
| 2026-04-22 20:43 | 63.86043 | -105.63764 | 41282 ft | 491 kts | 214° |
| 2026-04-22 20:44 | 63.80184 | -105.71759 | 41291 ft | 491 kts | 213° |
| 2026-04-22 20:44 | 63.74325 | -105.79716 | 41301 ft | 491 kts | 213° |
| 2026-04-22 20:45 | 63.68472 | -105.87625 | 41303 ft | 490 kts | 213° |
| 2026-04-22 20:45 | 63.62648 | -105.95457 | 41309 ft | 490 kts | 213° |
| 2026-04-22 20:46 | 63.53499 | -106.07684 | 41335 ft | 490 kts | 213° |
| 2026-04-22 20:46 | 63.47631 | -106.15478 | 41344 ft | 490 kts | 213° |
| 2026-04-22 20:47 | 63.41761 | -106.23237 | 41354 ft | 490 kts | 213° |
| 2026-04-22 20:47 | 63.35925 | -106.30914 | 41366 ft | 490 kts | 213° |
| 2026-04-22 20:48 | 63.30050 | -106.38607 | 41380 ft | 490 kts | 213° |
| 2026-04-22 20:48 | 63.24174 | -106.46263 | 41384 ft | 489 kts | 213° |
| 2026-04-22 20:49 | 63.18299 | -106.53881 | 41394 ft | 489 kts | 213° |
| 2026-04-22 20:49 | 63.12419 | -106.61470 | 41405 ft | 489 kts | 213° |
| 2026-04-22 20:50 | 63.06537 | -106.69027 | 41416 ft | 489 kts | 213° |
| 2026-04-22 20:50 | 63.00653 | -106.76549 | 41425 ft | 489 kts | 213° |
| 2026-04-22 20:51 | 62.94759 | -106.84049 | 41447 ft | 489 kts | 213° |
| 2026-04-22 20:51 | 62.88860 | -106.91520 | 41493 ft | 487 kts | 213° |
| 2026-04-22 20:52 | 62.85972 | -106.95162 | 41640 ft | 484 kts | 213° |
| 2026-04-22 20:52 | 62.83048 | -106.98843 | 41721 ft | 483 kts | 213° |
| 2026-04-22 20:52 | 62.77204 | -107.06179 | 41752 ft | 483 kts | 212° |
| 2026-04-22 20:53 | 62.71387 | -107.13444 | 41888 ft | 481 kts | 212° |
| 2026-04-22 20:53 | 62.65583 | -107.20660 | 42014 ft | 478 kts | 212° |
| 2026-04-22 20:54 | 62.63871 | -107.22783 | 42058 ft | 478 kts | 212° |
| 2026-04-22 20:54 | 62.58098 | -107.29919 | 42192 ft | 476 kts | 212° |
| 2026-04-22 20:55 | 62.52355 | -107.36986 | 42320 ft | 474 kts | 212° |
| 2026-04-22 20:55 | 62.46632 | -107.43997 | 42457 ft | 472 kts | 212° |
| 2026-04-22 20:56 | 62.41890 | -107.49783 | 42567 ft | 470 kts | 212° |
| 2026-04-22 20:56 | 62.36203 | -107.56693 | 42704 ft | 468 kts | 212° |
| 2026-04-22 20:57 | 62.29609 | -107.64670 | 42858 ft | 466 kts | 212° |
| 2026-04-22 20:57 | 62.24871 | -107.70376 | 42972 ft | 465 kts | 212° |
| 2026-04-22 20:58 | 62.19270 | -107.77094 | 43113 ft | 463 kts | 212° |
| 2026-04-22 20:58 | 62.13659 | -107.83797 | 43224 ft | 461 kts | 212° |
| 2026-04-22 20:59 | 62.08051 | -107.90469 | 43251 ft | 462 kts | 212° |
| 2026-04-22 20:59 | 62.02460 | -107.97094 | 43253 ft | 462 kts | 212° |
| 2026-04-22 21:00 | 61.96800 | -108.03829 | 43248 ft | 463 kts | 212° |
| 2026-04-22 21:00 | 61.91244 | -108.10597 | 43238 ft | 464 kts | 212° |
| 2026-04-22 21:01 | 61.85644 | -108.17422 | 43225 ft | 465 kts | 212° |
| 2026-04-22 21:01 | 61.80014 | -108.24235 | 43232 ft | 465 kts | 212° |
| 2026-04-22 21:02 | 61.74381 | -108.31008 | 43219 ft | 466 kts | 212° |
| 2026-04-22 21:02 | 61.68734 | -108.37764 | 43213 ft | 467 kts | 212° |
| 2026-04-22 21:03 | 61.63079 | -108.44502 | 43207 ft | 467 kts | 212° |
| 2026-04-22 21:03 | 61.57439 | -108.51194 | 43204 ft | 468 kts | 212° |
| 2026-04-22 21:04 | 61.51762 | -108.57900 | 43195 ft | 469 kts | 212° |
| 2026-04-22 21:04 | 61.46064 | -108.64605 | 43180 ft | 469 kts | 212° |
| 2026-04-22 21:05 | 61.40373 | -108.71272 | 43178 ft | 469 kts | 212° |
| 2026-04-22 21:05 | 61.34669 | -108.77927 | 43180 ft | 470 kts | 212° |
| 2026-04-22 21:06 | 61.28951 | -108.84569 | 43174 ft | 470 kts | 212° |
| 2026-04-22 21:06 | 61.23236 | -108.91181 | 43171 ft | 470 kts | 212° |
| 2026-04-22 21:07 | 61.17501 | -108.97787 | 43162 ft | 471 kts | 212° |
| 2026-04-22 21:07 | 61.11804 | -109.04323 | 43164 ft | 471 kts | 212° |
| 2026-04-22 21:08 | 61.06063 | -109.10883 | 43152 ft | 472 kts | 211° |
| 2026-04-22 21:08 | 61.00315 | -109.17423 | 43149 ft | 472 kts | 211° |
| 2026-04-22 21:09 | 60.94553 | -109.23950 | 43148 ft | 472 kts | 211° |
| 2026-04-22 21:09 | 60.88789 | -109.30453 | 43146 ft | 472 kts | 211° |
| 2026-04-22 21:10 | 60.83017 | -109.36938 | 43142 ft | 473 kts | 211° |
| 2026-04-22 21:10 | 60.77275 | -109.43362 | 43136 ft | 473 kts | 211° |
| 2026-04-22 21:11 | 60.71491 | -109.49807 | 43133 ft | 473 kts | 211° |
| 2026-04-22 21:11 | 60.65699 | -109.56235 | 43132 ft | 473 kts | 211° |
| 2026-04-22 21:12 | 60.59914 | -109.62627 | 43130 ft | 473 kts | 211° |
| 2026-04-22 21:12 | 60.54117 | -109.69007 | 43124 ft | 473 kts | 211° |
| 2026-04-22 21:13 | 60.48324 | -109.75358 | 43121 ft | 473 kts | 211° |
| 2026-04-22 21:13 | 60.42557 | -109.81652 | 43122 ft | 473 kts | 211° |
| 2026-04-22 21:14 | 60.36751 | -109.87963 | 43121 ft | 473 kts | 211° |
| 2026-04-22 21:14 | 60.30943 | -109.94253 | 43116 ft | 473 kts | 211° |
| 2026-04-22 21:15 | 60.25132 | -110.00519 | 43116 ft | 473 kts | 211° |
| 2026-04-22 21:15 | 60.19326 | -110.06755 | 43116 ft | 473 kts | 211° |
| 2026-04-22 21:16 | 60.13504 | -110.12983 | 43111 ft | 473 kts | 211° |
| 2026-04-22 21:16 | 60.07718 | -110.19147 | 43112 ft | 473 kts | 210° |
| 2026-04-22 21:17 | 60.01897 | -110.25323 | 43111 ft | 473 kts | 210° |
| 2026-04-22 21:17 | 59.96079 | -110.31472 | 43110 ft | 473 kts | 210° |
| 2026-04-22 21:18 | 59.90251 | -110.37607 | 43105 ft | 473 kts | 210° |
| 2026-04-22 21:18 | 59.84418 | -110.43721 | 43109 ft | 473 kts | 210° |
| 2026-04-22 21:19 | 59.78589 | -110.49809 | 43106 ft | 473 kts | 210° |
| 2026-04-22 21:19 | 59.72751 | -110.55881 | 43108 ft | 473 kts | 210° |
| 2026-04-22 21:20 | 59.66915 | -110.61927 | 43107 ft | 473 kts | 210° |
| 2026-04-22 21:20 | 59.61070 | -110.67958 | 43108 ft | 473 kts | 210° |
| 2026-04-22 21:21 | 59.55265 | -110.73925 | 43107 ft | 473 kts | 210° |
| 2026-04-22 21:21 | 59.49422 | -110.79907 | 43105 ft | 473 kts | 210° |
| 2026-04-22 21:22 | 59.43574 | -110.85871 | 43104 ft | 473 kts | 210° |
| 2026-04-22 21:22 | 59.37722 | -110.91815 | 43102 ft | 473 kts | 210° |
| 2026-04-22 21:23 | 59.31867 | -110.97739 | 43094 ft | 473 kts | 210° |
| 2026-04-22 21:23 | 59.26058 | -111.03595 | 43099 ft | 473 kts | 210° |
| 2026-04-22 21:24 | 59.25073 | -111.04585 | 43117 ft | 473 kts | 210° |
| 2026-04-22 21:24 | 59.18706 | -111.10973 | 43086 ft | 473 kts | 210° |
| 2026-04-22 21:25 | 59.12849 | -111.16825 | 43098 ft | 473 kts | 210° |
| 2026-04-22 21:25 | 59.06988 | -111.22658 | 43065 ft | 473 kts | 210° |
| 2026-04-22 21:26 | 59.01161 | -111.28435 | 43065 ft | 473 kts | 209° |
| 2026-04-22 21:26 | 58.95300 | -111.34223 | 43054 ft | 473 kts | 209° |
| 2026-04-22 21:27 | 58.89435 | -111.39994 | 43047 ft | 473 kts | 209° |
| 2026-04-22 21:27 | 58.83565 | -111.45746 | 43048 ft | 473 kts | 209° |
| 2026-04-22 21:28 | 58.77699 | -111.51474 | 43047 ft | 473 kts | 209° |
| 2026-04-22 21:28 | 58.71812 | -111.57200 | 43043 ft | 473 kts | 209° |
| 2026-04-22 21:29 | 58.65937 | -111.62892 | 43056 ft | 473 kts | 209° |
| 2026-04-22 21:29 | 58.60092 | -111.68534 | 43064 ft | 473 kts | 209° |
| 2026-04-22 21:30 | 58.54210 | -111.74191 | 43067 ft | 473 kts | 209° |
| 2026-04-22 21:30 | 58.48338 | -111.79816 | 43068 ft | 472 kts | 209° |
| 2026-04-22 21:31 | 58.42450 | -111.85437 | 43066 ft | 472 kts | 209° |
| 2026-04-22 21:31 | 58.36564 | -111.91033 | 43072 ft | 472 kts | 209° |
| 2026-04-22 21:32 | 58.30717 | -111.96572 | 43066 ft | 473 kts | 209° |
| 2026-04-22 21:32 | 58.24820 | -112.02138 | 43070 ft | 473 kts | 208° |
| 2026-04-22 21:33 | 58.18908 | -112.07696 | 43058 ft | 473 kts | 208° |
| 2026-04-22 21:33 | 58.13010 | -112.13221 | 43060 ft | 473 kts | 208° |
| 2026-04-22 21:34 | 58.07145 | -112.18695 | 43055 ft | 473 kts | 208° |
| 2026-04-22 21:34 | 58.01246 | -112.24180 | 43057 ft | 472 kts | 208° |
| 2026-04-22 21:35 | 57.95335 | -112.29657 | 43049 ft | 473 kts | 208° |
| 2026-04-22 21:35 | 57.89422 | -112.35114 | 43046 ft | 473 kts | 208° |
| 2026-04-22 21:36 | 57.83506 | -112.40554 | 43036 ft | 474 kts | 208° |
| 2026-04-22 21:36 | 57.77616 | -112.45952 | 43025 ft | 474 kts | 208° |
| 2026-04-22 21:37 | 57.71684 | -112.51366 | 43031 ft | 474 kts | 208° |
| 2026-04-22 21:37 | 57.65743 | -112.56770 | 43010 ft | 474 kts | 208° |
| 2026-04-22 21:38 | 57.59815 | -112.62142 | 43002 ft | 474 kts | 208° |
| 2026-04-22 21:38 | 57.53918 | -112.67466 | 43007 ft | 474 kts | 208° |
| 2026-04-22 21:39 | 57.47985 | -112.72804 | 43008 ft | 473 kts | 208° |
| 2026-04-22 21:39 | 57.42050 | -112.78124 | 42993 ft | 473 kts | 208° |
| 2026-04-22 21:40 | 57.36112 | -112.83428 | 42993 ft | 473 kts | 208° |
| 2026-04-22 21:40 | 57.30171 | -112.88715 | 42987 ft | 474 kts | 208° |
| 2026-04-22 21:41 | 57.24225 | -112.93988 | 42988 ft | 474 kts | 208° |
| 2026-04-22 21:41 | 57.18282 | -112.99239 | 42979 ft | 473 kts | 208° |
| 2026-04-22 21:42 | 57.12377 | -113.04438 | 42981 ft | 473 kts | 208° |
| 2026-04-22 21:42 | 57.06423 | -113.09661 | 42973 ft | 474 kts | 208° |
| 2026-04-22 21:43 | 57.00465 | -113.14870 | 42977 ft | 473 kts | 208° |
| 2026-04-22 21:43 | 56.94511 | -113.20056 | 42977 ft | 474 kts | 208° |
| 2026-04-22 21:44 | 56.89555 | -113.24359 | 42976 ft | 474 kts | 208° |
| 2026-04-22 21:44 | 56.82629 | -113.30351 | 42976 ft | 473 kts | 208° |
| 2026-04-22 21:45 | 56.77644 | -113.34649 | 42971 ft | 473 kts | 208° |
| 2026-04-22 21:45 | 56.71715 | -113.39744 | 42974 ft | 473 kts | 207° |
| 2026-04-22 21:46 | 56.65750 | -113.44852 | 42969 ft | 473 kts | 207° |
| 2026-04-22 21:46 | 56.59790 | -113.49937 | 42971 ft | 473 kts | 207° |
| 2026-04-22 21:47 | 56.53823 | -113.55011 | 42971 ft | 473 kts | 207° |
| 2026-04-22 21:47 | 56.47860 | -113.60064 | 42967 ft | 473 kts | 207° |
| 2026-04-22 21:48 | 56.41889 | -113.65106 | 42967 ft | 473 kts | 207° |
| 2026-04-22 21:48 | 56.35953 | -113.70102 | 42966 ft | 473 kts | 207° |
| 2026-04-22 21:49 | 56.29969 | -113.75120 | 42966 ft | 473 kts | 207° |
| 2026-04-22 21:49 | 56.23997 | -113.80111 | 42967 ft | 473 kts | 207° |
| 2026-04-22 21:50 | 56.18010 | -113.85098 | 42963 ft | 473 kts | 207° |
| 2026-04-22 21:50 | 56.12061 | -113.90036 | 42958 ft | 473 kts | 207° |
| 2026-04-22 21:51 | 56.06074 | -113.94990 | 42956 ft | 473 kts | 207° |
| 2026-04-22 21:52 | 55.97085 | -114.02339 | 42950 ft | 474 kts | 206° |
| 2026-04-22 21:52 | 55.91032 | -114.07015 | 42956 ft | 474 kts | 206° |
| 2026-04-22 21:53 | 55.84968 | -114.11641 | 42950 ft | 474 kts | 206° |
| 2026-04-22 21:53 | 55.78901 | -114.16281 | 42949 ft | 474 kts | 206° |
| 2026-04-22 21:54 | 55.73867 | -114.20135 | 42947 ft | 474 kts | 206° |
| 2026-04-22 21:54 | 55.70911 | -114.22396 | 42947 ft | 474 kts | 206° |
| 2026-04-22 21:55 | 55.64857 | -114.27016 | 42946 ft | 474 kts | 206° |
| 2026-04-22 21:55 | 55.58830 | -114.31600 | 42949 ft | 474 kts | 206° |
| 2026-04-22 21:56 | 55.52777 | -114.36187 | 42947 ft | 474 kts | 206° |
| 2026-04-22 21:56 | 55.46692 | -114.40783 | 42925 ft | 474 kts | 206° |
| 2026-04-22 21:57 | 55.40626 | -114.45348 | 42925 ft | 474 kts | 206° |
| 2026-04-22 21:57 | 55.34584 | -114.49880 | 42911 ft | 474 kts | 206° |
| 2026-04-22 21:58 | 55.28514 | -114.54418 | 42905 ft | 474 kts | 205° |
| 2026-04-22 21:58 | 55.22440 | -114.58944 | 42900 ft | 474 kts | 205° |
| 2026-04-22 21:59 | 55.16355 | -114.63463 | 42909 ft | 475 kts | 205° |
| 2026-04-22 21:59 | 55.10262 | -114.67974 | 42912 ft | 475 kts | 205° |
| 2026-04-22 22:00 | 55.04170 | -114.72468 | 42924 ft | 475 kts | 205° |
| 2026-04-22 22:00 | 54.98077 | -114.76948 | 42943 ft | 475 kts | 205° |
| 2026-04-22 22:01 | 54.92017 | -114.81390 | 42947 ft | 475 kts | 205° |
| 2026-04-22 22:01 | 54.85909 | -114.85852 | 42951 ft | 475 kts | 205° |
| 2026-04-22 22:02 | 54.79810 | -114.90292 | 42951 ft | 475 kts | 205° |
| 2026-04-22 22:02 | 54.73713 | -114.94717 | 42948 ft | 475 kts | 205° |
| 2026-04-22 22:03 | 54.67607 | -114.99133 | 42949 ft | 475 kts | 205° |
| 2026-04-22 22:03 | 54.61500 | -115.03536 | 42949 ft | 475 kts | 205° |
| 2026-04-22 22:04 | 54.55391 | -115.07926 | 42944 ft | 475 kts | 205° |
| 2026-04-22 22:04 | 54.49281 | -115.12303 | 42938 ft | 475 kts | 205° |
| 2026-04-22 22:05 | 54.43205 | -115.16641 | 42941 ft | 475 kts | 205° |
| 2026-04-22 22:05 | 54.37093 | -115.20991 | 42937 ft | 475 kts | 205° |
| 2026-04-22 22:06 | 54.30976 | -115.25330 | 42930 ft | 475 kts | 205° |
| 2026-04-22 22:06 | 54.24854 | -115.29658 | 42923 ft | 475 kts | 205° |
| 2026-04-22 22:07 | 54.18736 | -115.33971 | 42919 ft | 475 kts | 205° |
| 2026-04-22 22:07 | 54.12615 | -115.38271 | 42907 ft | 475 kts | 205° |
| 2026-04-22 22:08 | 54.06497 | -115.42555 | 42910 ft | 475 kts | 205° |
| 2026-04-22 22:08 | 54.00380 | -115.46825 | 42907 ft | 475 kts | 205° |
| 2026-04-22 22:09 | 53.94259 | -115.51085 | 42916 ft | 475 kts | 205° |
| 2026-04-22 22:09 | 53.88178 | -115.55303 | 42903 ft | 475 kts | 205° |
| 2026-04-22 22:10 | 53.82058 | -115.59534 | 42912 ft | 475 kts | 205° |
| 2026-04-22 22:10 | 53.75937 | -115.63753 | 42910 ft | 475 kts | 205° |
| 2026-04-22 22:11 | 53.69811 | -115.67962 | 42911 ft | 475 kts | 205° |
| 2026-04-22 22:11 | 53.63692 | -115.72154 | 42900 ft | 475 kts | 205° |
| 2026-04-22 22:12 | 53.57569 | -115.76334 | 42903 ft | 474 kts | 205° |
| 2026-04-22 22:12 | 53.51450 | -115.80500 | 42895 ft | 474 kts | 205° |
| 2026-04-22 22:13 | 53.45375 | -115.84621 | 42898 ft | 474 kts | 205° |
| 2026-04-22 22:13 | 53.39261 | -115.88756 | 42882 ft | 474 kts | 205° |
| 2026-04-22 22:14 | 53.33148 | -115.92878 | 42886 ft | 474 kts | 205° |
| 2026-04-22 22:14 | 53.27035 | -115.96988 | 42888 ft | 473 kts | 205° |
| 2026-04-22 22:15 | 53.20909 | -116.01094 | 42894 ft | 474 kts | 205° |
| 2026-04-22 22:15 | 53.14789 | -116.05183 | 42885 ft | 474 kts | 205° |
| 2026-04-22 22:16 | 53.08661 | -116.09265 | 42898 ft | 474 kts | 204° |
| 2026-04-22 22:16 | 53.02579 | -116.13303 | 42898 ft | 474 kts | 204° |
| 2026-04-22 22:17 | 52.96449 | -116.17362 | 42896 ft | 475 kts | 204° |
| 2026-04-22 22:17 | 52.90306 | -116.21416 | 42906 ft | 474 kts | 204° |
| 2026-04-22 22:18 | 52.84178 | -116.25447 | 42914 ft | 474 kts | 204° |
| 2026-04-22 22:18 | 52.78044 | -116.29471 | 42921 ft | 474 kts | 204° |
| 2026-04-22 22:19 | 52.71906 | -116.33485 | 42918 ft | 474 kts | 204° |
| 2026-04-22 22:19 | 52.65767 | -116.37487 | 42920 ft | 474 kts | 204° |
| 2026-04-22 22:20 | 52.59632 | -116.41475 | 42917 ft | 474 kts | 204° |
| 2026-04-22 22:20 | 52.53526 | -116.45432 | 42909 ft | 474 kts | 204° |
| 2026-04-22 22:21 | 52.47395 | -116.49393 | 42916 ft | 474 kts | 204° |
| 2026-04-22 22:21 | 52.41263 | -116.53343 | 42900 ft | 473 kts | 204° |
| 2026-04-22 22:22 | 52.35132 | -116.57281 | 42897 ft | 473 kts | 204° |
| 2026-04-22 22:22 | 52.29013 | -116.61199 | 42888 ft | 472 kts | 204° |
| 2026-04-22 22:23 | 52.22883 | -116.65113 | 42872 ft | 472 kts | 204° |
| 2026-04-22 22:23 | 52.16765 | -116.69007 | 42864 ft | 472 kts | 204° |
| 2026-04-22 22:24 | 52.12677 | -116.71603 | 42862 ft | 471 kts | 204° |
| 2026-04-22 22:24 | 52.08646 | -116.74158 | 42856 ft | 471 kts | 204° |
| 2026-04-22 22:25 | 52.02536 | -116.78020 | 42842 ft | 471 kts | 204° |
| 2026-04-22 22:25 | 51.96454 | -116.81854 | 42821 ft | 471 kts | 204° |
| 2026-04-22 22:26 | 51.90336 | -116.85698 | 42811 ft | 471 kts | 204° |
| 2026-04-22 22:26 | 51.84225 | -116.89529 | 42808 ft | 472 kts | 204° |
| 2026-04-22 22:27 | 51.78102 | -116.93355 | 42802 ft | 472 kts | 204° |
| 2026-04-22 22:27 | 51.71970 | -116.97174 | 42767 ft | 472 kts | 204° |
| 2026-04-22 22:28 | 51.65846 | -117.00978 | 42762 ft | 472 kts | 204° |
| 2026-04-22 22:28 | 51.59754 | -117.04752 | 42741 ft | 471 kts | 204° |
| 2026-04-22 22:29 | 51.53624 | -117.08537 | 42726 ft | 471 kts | 203° |
| 2026-04-22 22:29 | 51.47495 | -117.12312 | 42708 ft | 472 kts | 203° |
| 2026-04-22 22:30 | 51.41359 | -117.16080 | 42702 ft | 472 kts | 204° |
| 2026-04-22 22:30 | 51.35226 | -117.19835 | 42700 ft | 472 kts | 203° |
| 2026-04-22 22:31 | 51.29095 | -117.23579 | 42707 ft | 472 kts | 203° |
| 2026-04-22 22:31 | 51.23994 | -117.26684 | 42711 ft | 471 kts | 203° |
| 2026-04-22 22:32 | 51.16865 | -117.31013 | 42722 ft | 471 kts | 203° |
| 2026-04-22 22:32 | 51.11730 | -117.34123 | 42718 ft | 471 kts | 203° |
| 2026-04-22 22:33 | 51.05596 | -117.37825 | 42724 ft | 471 kts | 203° |
| 2026-04-22 22:33 | 50.99498 | -117.41499 | 42721 ft | 471 kts | 203° |
| 2026-04-22 22:34 | 50.93362 | -117.45184 | 42731 ft | 471 kts | 203° |
| 2026-04-22 22:34 | 50.87231 | -117.48855 | 42724 ft | 471 kts | 203° |
| 2026-04-22 22:35 | 50.81092 | -117.52519 | 42714 ft | 471 kts | 203° |
| 2026-04-22 22:35 | 50.74966 | -117.56167 | 42727 ft | 471 kts | 203° |
| 2026-04-22 22:36 | 50.68828 | -117.59811 | 42726 ft | 471 kts | 202° |
| 2026-04-22 22:36 | 50.62700 | -117.63441 | 42724 ft | 471 kts | 202° |
| 2026-04-22 22:37 | 50.56567 | -117.67063 | 42717 ft | 470 kts | 202° |
| 2026-04-22 22:37 | 50.50473 | -117.70651 | 42727 ft | 470 kts | 202° |
| 2026-04-22 22:38 | 50.44346 | -117.74248 | 42721 ft | 470 kts | 202° |
| 2026-04-22 22:38 | 50.38227 | -117.77832 | 42719 ft | 470 kts | 202° |
| 2026-04-22 22:39 | 50.32106 | -117.81407 | 42735 ft | 469 kts | 202° |
| 2026-04-22 22:39 | 50.25977 | -117.84976 | 42718 ft | 469 kts | 202° |
| 2026-04-22 22:40 | 50.19881 | -117.88516 | 42724 ft | 468 kts | 202° |
| 2026-04-22 22:40 | 50.13768 | -117.92057 | 42733 ft | 469 kts | 202° |
| 2026-04-22 22:41 | 50.07648 | -117.95593 | 42731 ft | 468 kts | 202° |
| 2026-04-22 22:41 | 50.01535 | -117.99115 | 42733 ft | 468 kts | 202° |
| 2026-04-22 22:42 | 49.95416 | -118.02626 | 42739 ft | 469 kts | 202° |
| 2026-04-22 22:42 | 49.89301 | -118.06124 | 42732 ft | 468 kts | 201° |
| 2026-04-22 22:43 | 49.83186 | -118.09613 | 42741 ft | 468 kts | 201° |
| 2026-04-22 22:43 | 49.77068 | -118.13095 | 42744 ft | 468 kts | 201° |
| 2026-04-22 22:44 | 49.70960 | -118.16563 | 42744 ft | 468 kts | 201° |
| 2026-04-22 22:44 | 49.64845 | -118.20026 | 42732 ft | 468 kts | 201° |
| 2026-04-22 22:45 | 49.58769 | -118.23456 | 42739 ft | 468 kts | 201° |
| 2026-04-22 22:45 | 49.52655 | -118.26899 | 42736 ft | 467 kts | 201° |
| 2026-04-22 22:46 | 49.46546 | -118.30331 | 42743 ft | 467 kts | 201° |
| 2026-04-22 22:46 | 49.40420 | -118.33762 | 42727 ft | 467 kts | 201° |
| 2026-04-22 22:47 | 49.34311 | -118.37176 | 42726 ft | 467 kts | 201° |
| 2026-04-22 22:47 | 49.28236 | -118.40562 | 42730 ft | 467 kts | 201° |
| 2026-04-22 22:48 | 49.22118 | -118.43963 | 42724 ft | 468 kts | 201° |
| 2026-04-22 22:48 | 49.15994 | -118.47357 | 42721 ft | 468 kts | 201° |
| 2026-04-22 22:49 | 49.09877 | -118.50738 | 42743 ft | 468 kts | 201° |
| 2026-04-22 22:49 | 49.03755 | -118.54114 | 42738 ft | 468 kts | 200° |
| 2026-04-22 22:50 | 48.97623 | -118.57486 | 42727 ft | 468 kts | 200° |
| 2026-04-22 22:50 | 48.91492 | -118.60849 | 42741 ft | 468 kts | 200° |
| 2026-04-22 22:51 | 48.85364 | -118.64202 | 42746 ft | 468 kts | 200° |
| 2026-04-22 22:51 | 48.79234 | -118.67548 | 42736 ft | 468 kts | 200° |
| 2026-04-22 22:52 | 48.73097 | -118.70887 | 42747 ft | 468 kts | 200° |
| 2026-04-22 22:52 | 48.66968 | -118.74214 | 42745 ft | 468 kts | 200° |
| 2026-04-22 22:53 | 48.60867 | -118.77518 | 42752 ft | 468 kts | 200° |
| 2026-04-22 22:53 | 48.54739 | -118.80828 | 42746 ft | 468 kts | 200° |
| 2026-04-22 22:54 | 48.49638 | -118.83575 | 42749 ft | 468 kts | 200° |
| 2026-04-22 22:54 | 48.46825 | -118.85088 | 42754 ft | 468 kts | 200° |
| 2026-04-22 22:55 | 48.40681 | -118.88386 | 42748 ft | 469 kts | 200° |
| 2026-04-22 22:55 | 48.31504 | -118.93299 | 42754 ft | 468 kts | 200° |
| 2026-04-22 22:56 | 48.25359 | -118.96576 | 42750 ft | 468 kts | 200° |
| 2026-04-22 22:56 | 48.19206 | -118.99849 | 42748 ft | 468 kts | 199° |
| 2026-04-22 22:57 | 48.13068 | -119.03107 | 42746 ft | 468 kts | 199° |
| 2026-04-22 22:57 | 48.06924 | -119.06360 | 42757 ft | 468 kts | 199° |
| 2026-04-22 22:58 | 48.00822 | -119.09582 | 42745 ft | 468 kts | 199° |
| 2026-04-22 22:58 | 47.94673 | -119.12821 | 42760 ft | 468 kts | 199° |
| 2026-04-22 22:59 | 47.88537 | -119.16045 | 42768 ft | 468 kts | 199° |
| 2026-04-22 22:59 | 47.82395 | -119.19264 | 42775 ft | 467 kts | 199° |
| 2026-04-22 23:00 | 47.76254 | -119.22474 | 42769 ft | 467 kts | 199° |
| 2026-04-22 23:00 | 47.70112 | -119.25677 | 42773 ft | 467 kts | 199° |
| 2026-04-22 23:01 | 47.63977 | -119.28869 | 42765 ft | 467 kts | 199° |
| 2026-04-22 23:01 | 47.57881 | -119.32032 | 42786 ft | 467 kts | 199° |
| 2026-04-22 23:02 | 47.51750 | -119.35206 | 42799 ft | 467 kts | 199° |
| 2026-04-22 23:02 | 47.45610 | -119.38376 | 42810 ft | 466 kts | 199° |
| 2026-04-22 23:03 | 47.39485 | -119.41532 | 42807 ft | 466 kts | 199° |
| 2026-04-22 23:03 | 47.33343 | -119.44618 | 42817 ft | 466 kts | 198° |
| 2026-04-22 23:04 | 47.27184 | -119.47578 | 42815 ft | 465 kts | 198° |
| 2026-04-22 23:04 | 47.21025 | -119.50524 | 42813 ft | 465 kts | 198° |
| 2026-04-22 23:05 | 47.14906 | -119.53461 | 42811 ft | 465 kts | 198° |
| 2026-04-22 23:05 | 47.08757 | -119.56415 | 42825 ft | 465 kts | 198° |
| 2026-04-22 23:06 | 47.02602 | -119.59368 | 42819 ft | 465 kts | 198° |
| 2026-04-22 23:06 | 46.96443 | -119.62315 | 42823 ft | 465 kts | 198° |
| 2026-04-22 23:07 | 46.90286 | -119.65253 | 42844 ft | 466 kts | 198° |
| 2026-04-22 23:07 | 46.84119 | -119.68188 | 42841 ft | 466 kts | 198° |
| 2026-04-22 23:08 | 46.77983 | -119.71102 | 42859 ft | 466 kts | 198° |
| 2026-04-22 23:08 | 46.71763 | -119.74049 | 42856 ft | 467 kts | 198° |
| 2026-04-22 23:09 | 46.65624 | -119.76950 | 42869 ft | 467 kts | 197° |
| 2026-04-22 23:09 | 46.59439 | -119.79866 | 42869 ft | 467 kts | 197° |
| 2026-04-22 23:10 | 46.53247 | -119.82778 | 42880 ft | 467 kts | 197° |
| 2026-04-22 23:10 | 46.47054 | -119.85684 | 42865 ft | 468 kts | 197° |
| 2026-04-22 23:11 | 46.40852 | -119.88587 | 42875 ft | 468 kts | 197° |
| 2026-04-22 23:11 | 46.34657 | -119.91479 | 42904 ft | 468 kts | 197° |
| 2026-04-22 23:12 | 46.28455 | -119.94369 | 42903 ft | 468 kts | 197° |
| 2026-04-22 23:12 | 46.22285 | -119.97236 | 42912 ft | 469 kts | 197° |
| 2026-04-22 23:13 | 46.16066 | -120.00119 | 42922 ft | 470 kts | 197° |
| 2026-04-22 23:13 | 46.09834 | -120.03002 | 42939 ft | 470 kts | 197° |
| 2026-04-22 23:14 | 46.03600 | -120.05879 | 42949 ft | 471 kts | 197° |
| 2026-04-22 23:14 | 45.97362 | -120.08750 | 42959 ft | 471 kts | 197° |
| 2026-04-22 23:15 | 45.91102 | -120.11625 | 42975 ft | 472 kts | 197° |
| 2026-04-22 23:15 | 45.84873 | -120.14479 | 42983 ft | 472 kts | 197° |
| 2026-04-22 23:16 | 45.78609 | -120.17342 | 42995 ft | 472 kts | 197° |
| 2026-04-22 23:16 | 45.72341 | -120.20200 | 43003 ft | 472 kts | 197° |
| 2026-04-22 23:17 | 45.66075 | -120.23051 | 43015 ft | 472 kts | 197° |
| 2026-04-22 23:17 | 45.60864 | -120.25417 | 43024 ft | 472 kts | 197° |
| 2026-04-22 23:18 | 45.54600 | -120.28254 | 43030 ft | 472 kts | 197° |
| 2026-04-22 23:18 | 45.48330 | -120.31088 | 43040 ft | 472 kts | 197° |
| 2026-04-22 23:19 | 45.42067 | -120.33911 | 43051 ft | 473 kts | 197° |
| 2026-04-22 23:19 | 45.35782 | -120.36738 | 43050 ft | 473 kts | 197° |
| 2026-04-22 23:20 | 45.29544 | -120.39538 | 43059 ft | 474 kts | 197° |
| 2026-04-22 23:20 | 45.23246 | -120.42358 | 43068 ft | 474 kts | 197° |
| 2026-04-22 23:21 | 45.16945 | -120.45172 | 43076 ft | 475 kts | 197° |
| 2026-04-22 23:21 | 45.10622 | -120.47990 | 43079 ft | 476 kts | 197° |
| 2026-04-22 23:22 | 45.04296 | -120.50803 | 43077 ft | 477 kts | 197° |
| 2026-04-22 23:22 | 44.97994 | -120.53598 | 43083 ft | 478 kts | 197° |
| 2026-04-22 23:23 | 44.91639 | -120.56411 | 43089 ft | 479 kts | 197° |
| 2026-04-22 23:23 | 44.85275 | -120.59221 | 43095 ft | 479 kts | 197° |
| 2026-04-22 23:24 | 44.82702 | -120.60355 | 43105 ft | 480 kts | 197° |
| 2026-04-22 23:24 | 44.77022 | -120.62853 | 43088 ft | 483 kts | 199° |
| 2026-04-22 23:25 | 44.70589 | -120.65679 | 43110 ft | 486 kts | 199° |
| 2026-04-22 23:25 | 44.64117 | -120.68517 | 43124 ft | 488 kts | 199° |
| 2026-04-22 23:26 | 44.57655 | -120.71342 | 43119 ft | 490 kts | 200° |
| 2026-04-22 23:26 | 44.51133 | -120.74188 | 43123 ft | 492 kts | 200° |
| 2026-04-22 23:27 | 44.44569 | -120.77043 | 43134 ft | 494 kts | 200° |
| 2026-04-22 23:27 | 44.37984 | -120.79901 | 43118 ft | 496 kts | 199° |
| 2026-04-22 23:28 | 44.31385 | -120.82758 | 43116 ft | 497 kts | 199° |
| 2026-04-22 23:28 | 44.24811 | -120.85599 | 43118 ft | 498 kts | 199° |
| 2026-04-22 23:29 | 44.18186 | -120.88454 | 43114 ft | 499 kts | 199° |
| 2026-04-22 23:29 | 44.11543 | -120.91310 | 43115 ft | 499 kts | 199° |
| 2026-04-22 23:30 | 44.04907 | -120.94156 | 43111 ft | 500 kts | 199° |
| 2026-04-22 23:30 | 43.98258 | -120.97002 | 43113 ft | 500 kts | 199° |
| 2026-04-22 23:31 | 43.91585 | -120.99852 | 43124 ft | 501 kts | 199° |
| 2026-04-22 23:31 | 43.84962 | -121.02674 | 43125 ft | 501 kts | 199° |
| 2026-04-22 23:32 | 43.78297 | -121.05505 | 43145 ft | 501 kts | 200° |
| 2026-04-22 23:32 | 43.71606 | -121.08342 | 43151 ft | 501 kts | 200° |
| 2026-04-22 23:33 | 43.64979 | -121.11144 | 43161 ft | 501 kts | 200° |
| 2026-04-22 23:33 | 43.58313 | -121.13958 | 43163 ft | 501 kts | 199° |
| 2026-04-22 23:34 | 43.51649 | -121.16765 | 43166 ft | 501 kts | 199° |
| 2026-04-22 23:34 | 43.44976 | -121.19568 | 43170 ft | 501 kts | 199° |
| 2026-04-22 23:35 | 43.38306 | -121.22363 | 43167 ft | 501 kts | 199° |
| 2026-04-22 23:35 | 43.31634 | -121.25153 | 43171 ft | 501 kts | 199° |
| 2026-04-22 23:36 | 43.24961 | -121.27937 | 43173 ft | 501 kts | 199° |
| 2026-04-22 23:36 | 43.18325 | -121.30700 | 43174 ft | 501 kts | 199° |
| 2026-04-22 23:37 | 43.11636 | -121.33477 | 43178 ft | 501 kts | 199° |
| 2026-04-22 23:37 | 43.04951 | -121.36248 | 43180 ft | 501 kts | 199° |
| 2026-04-22 23:38 | 42.98273 | -121.39009 | 43188 ft | 501 kts | 199° |
| 2026-04-22 23:38 | 42.91632 | -121.41748 | 43179 ft | 502 kts | 199° |
| 2026-04-22 23:39 | 42.84942 | -121.44501 | 43183 ft | 502 kts | 199° |
| 2026-04-22 23:39 | 42.78248 | -121.47248 | 43184 ft | 502 kts | 199° |
| 2026-04-22 23:40 | 42.71559 | -121.49989 | 43184 ft | 501 kts | 199° |
| 2026-04-22 23:40 | 42.64876 | -121.52721 | 43187 ft | 501 kts | 199° |
| 2026-04-22 23:41 | 42.58237 | -121.55429 | 43186 ft | 501 kts | 199° |
| 2026-04-22 23:41 | 42.51561 | -121.58146 | 43176 ft | 501 kts | 199° |
| 2026-04-22 23:42 | 42.44879 | -121.60859 | 43186 ft | 501 kts | 199° |
| 2026-04-22 23:42 | 42.38188 | -121.63570 | 43174 ft | 502 kts | 199° |
| 2026-04-22 23:43 | 42.31501 | -121.66273 | 43163 ft | 501 kts | 199° |
| 2026-04-22 23:43 | 42.24811 | -121.68972 | 43161 ft | 501 kts | 200° |
| 2026-04-22 23:44 | 42.18133 | -121.71661 | 43164 ft | 500 kts | 200° |
| 2026-04-22 23:44 | 42.11356 | -121.73925 | 43170 ft | 502 kts | 194° |
| 2026-04-22 23:45 | 42.04522 | -121.75628 | 43170 ft | 503 kts | 193° |
| 2026-04-22 23:45 | 41.97628 | -121.77316 | 43168 ft | 502 kts | 194° |
| 2026-04-22 23:46 | 41.90755 | -121.79034 | 43172 ft | 502 kts | 194° |
| 2026-04-22 23:46 | 41.83889 | -121.80771 | 43177 ft | 502 kts | 194° |
| 2026-04-22 23:47 | 41.77033 | -121.82506 | 43177 ft | 502 kts | 194° |
| 2026-04-22 23:47 | 41.70162 | -121.84241 | 43188 ft | 501 kts | 194° |
| 2026-04-22 23:48 | 41.63323 | -121.85961 | 43191 ft | 501 kts | 194° |
| 2026-04-22 23:48 | 41.56467 | -121.87681 | 43203 ft | 501 kts | 194° |
| 2026-04-22 23:49 | 41.49599 | -121.89401 | 43211 ft | 502 kts | 194° |
| 2026-04-22 23:49 | 41.42736 | -121.91115 | 43216 ft | 501 kts | 194° |
| 2026-04-22 23:50 | 41.35871 | -121.92827 | 43232 ft | 501 kts | 194° |
| 2026-04-22 23:50 | 41.29053 | -121.94523 | 43234 ft | 501 kts | 194° |
| 2026-04-22 23:51 | 41.22195 | -121.96225 | 43232 ft | 501 kts | 194° |
| 2026-04-22 23:51 | 41.15340 | -121.97923 | 43243 ft | 501 kts | 194° |
| 2026-04-22 23:52 | 41.08478 | -121.99620 | 43233 ft | 501 kts | 194° |
| 2026-04-22 23:52 | 41.01627 | -122.01309 | 43242 ft | 501 kts | 194° |
| 2026-04-22 23:53 | 40.94764 | -122.02999 | 43242 ft | 501 kts | 194° |
| 2026-04-22 23:53 | 40.87950 | -122.04672 | 43238 ft | 501 kts | 194° |
| 2026-04-22 23:54 | 40.86793 | -122.04956 | 43237 ft | 501 kts | 194° |
| 2026-04-22 23:54 | 40.79633 | -122.06710 | 43236 ft | 501 kts | 194° |
| 2026-04-22 23:55 | 40.72770 | -122.08388 | 43226 ft | 500 kts | 194° |
| 2026-04-22 23:55 | 40.65957 | -122.10051 | 43224 ft | 500 kts | 194° |
| 2026-04-22 23:56 | 40.59104 | -122.11719 | 43221 ft | 500 kts | 194° |
| 2026-04-22 23:56 | 40.52254 | -122.13383 | 43218 ft | 500 kts | 195° |
| 2026-04-22 23:57 | 40.45413 | -122.15042 | 43222 ft | 500 kts | 195° |
| 2026-04-22 23:57 | 40.38572 | -122.16697 | 43220 ft | 500 kts | 195° |
| 2026-04-22 23:58 | 40.31727 | -122.18350 | 43238 ft | 500 kts | 195° |
| 2026-04-22 23:58 | 40.24881 | -122.20000 | 43235 ft | 500 kts | 195° |
| 2026-04-22 23:59 | 40.18084 | -122.21635 | 43240 ft | 500 kts | 195° |
| 2026-04-22 23:59 | 40.11240 | -122.23278 | 43239 ft | 499 kts | 195° |
| 2026-04-23 00:00 | 40.02192 | -122.25714 | 43230 ft | 493 kts | 197° |
| 2026-04-23 00:00 | 39.97791 | -122.27023 | 43220 ft | 476 kts | 197° |
| 2026-04-23 00:01 | 39.94588 | -122.27975 | 43231 ft | 471 kts | 197° |
| 2026-04-23 00:01 | 39.88209 | -122.29854 | 43239 ft | 469 kts | 197° |
| 2026-04-23 00:02 | 39.81833 | -122.31700 | 43245 ft | 469 kts | 197° |
| 2026-04-23 00:02 | 39.75508 | -122.33516 | 43239 ft | 468 kts | 197° |
| 2026-04-23 00:03 | 39.69138 | -122.35341 | 43235 ft | 468 kts | 197° |
| 2026-04-23 00:03 | 39.62770 | -122.37161 | 43239 ft | 468 kts | 197° |
| 2026-04-23 00:04 | 39.56434 | -122.38971 | 43232 ft | 468 kts | 197° |
| 2026-04-23 00:04 | 39.50068 | -122.40786 | 43223 ft | 468 kts | 197° |
| 2026-04-23 00:05 | 39.43695 | -122.42599 | 43228 ft | 468 kts | 197° |
| 2026-04-23 00:05 | 39.40497 | -122.43509 | 42779 ft | 475 kts | 197° |
| 2026-04-23 00:05 | 39.37265 | -122.44428 | 42208 ft | 474 kts | 198° |
| 2026-04-23 00:05 | 39.34055 | -122.45336 | 41620 ft | 470 kts | 198° |
| 2026-04-23 00:06 | 39.30861 | -122.46238 | 41029 ft | 468 kts | 198° |
| 2026-04-23 00:06 | 39.28755 | -122.46833 | 40588 ft | 468 kts | 198° |
| 2026-04-23 00:06 | 39.25569 | -122.47735 | 39858 ft | 470 kts | 198° |
| 2026-04-23 00:06 | 39.22370 | -122.48641 | 39107 ft | 472 kts | 199° |
| 2026-04-23 00:07 | 39.18103 | -122.49847 | 37891 ft | 475 kts | 199° |
| 2026-04-23 00:07 | 39.14880 | -122.50756 | 37041 ft | 475 kts | 199° |
| 2026-04-23 00:07 | 39.12697 | -122.51371 | 36467 ft | 475 kts | 200° |
| 2026-04-23 00:07 | 39.09464 | -122.52281 | 35568 ft | 476 kts | 200° |
| 2026-04-23 00:08 | 39.06224 | -122.53193 | 34575 ft | 479 kts | 200° |
| 2026-04-23 00:08 | 39.02997 | -122.54100 | 33448 ft | 481 kts | 201° |
| 2026-04-23 00:08 | 38.99711 | -122.55024 | 32232 ft | 485 kts | 201° |
| 2026-04-23 00:08 | 38.96418 | -122.55941 | 31988 ft | 468 kts | 201° |
| 2026-04-23 00:09 | 38.93319 | -122.56798 | 31764 ft | 454 kts | 201° |
| 2026-04-23 00:09 | 38.90284 | -122.57643 | 31577 ft | 440 kts | 202° |
| 2026-04-23 00:09 | 38.87319 | -122.58480 | 31091 ft | 434 kts | 202° |
| 2026-04-23 00:09 | 38.84391 | -122.59313 | 30608 ft | 429 kts | 202° |
| 2026-04-23 00:10 | 38.81491 | -122.60139 | 30072 ft | 424 kts | 202° |
| 2026-04-23 00:10 | 38.78623 | -122.60956 | 29493 ft | 420 kts | 202° |
| 2026-04-23 00:10 | 38.75785 | -122.61763 | 28956 ft | 415 kts | 202° |
| 2026-04-23 00:10 | 38.72973 | -122.62560 | 28438 ft | 411 kts | 202° |
| 2026-04-23 00:11 | 38.70186 | -122.63349 | 27908 ft | 406 kts | 201° |
| 2026-04-23 00:11 | 38.67467 | -122.64117 | 27402 ft | 402 kts | 201° |
| 2026-04-23 00:11 | 38.64747 | -122.64889 | 26901 ft | 400 kts | 201° |
| 2026-04-23 00:11 | 38.62032 | -122.65658 | 26403 ft | 398 kts | 201° |
| 2026-04-23 00:12 | 38.59332 | -122.66418 | 25918 ft | 396 kts | 201° |
| 2026-04-23 00:12 | 38.56650 | -122.67171 | 25449 ft | 394 kts | 201° |
| 2026-04-23 00:12 | 38.53971 | -122.67923 | 24966 ft | 393 kts | 200° |
| 2026-04-23 00:12 | 38.51262 | -122.68690 | 24507 ft | 406 kts | 200° |
| 2026-04-23 00:13 | 38.48449 | -122.69492 | 24019 ft | 422 kts | 200° |
| 2026-04-23 00:13 | 38.45545 | -122.70315 | 23653 ft | 432 kts | 199° |
| 2026-04-23 00:13 | 38.42616 | -122.71131 | 23167 ft | 428 kts | 199° |
| 2026-04-23 00:13 | 38.39712 | -122.71935 | 22501 ft | 425 kts | 199° |
| 2026-04-23 00:14 | 38.36861 | -122.72724 | 22169 ft | 414 kts | 199° |
| 2026-04-23 00:14 | 38.34118 | -122.73484 | 21930 ft | 402 kts | 199° |
| 2026-04-23 00:14 | 38.31401 | -122.74244 | 21456 ft | 398 kts | 199° |
| 2026-04-23 00:14 | 38.28721 | -122.74995 | 21132 ft | 390 kts | 199° |
| 2026-04-23 00:15 | 38.26094 | -122.75730 | 20813 ft | 383 kts | 199° |
| 2026-04-23 00:15 | 38.23504 | -122.76431 | 20357 ft | 378 kts | 196° |
| 2026-04-23 00:15 | 38.20830 | -122.76475 | 19715 ft | 394 kts | 175° |
| 2026-04-23 00:15 | 38.18149 | -122.75689 | 19116 ft | 397 kts | 171° |
| 2026-04-23 00:16 | 38.15465 | -122.74837 | 18643 ft | 396 kts | 171° |
| 2026-04-23 00:16 | 38.12807 | -122.74003 | 18269 ft | 391 kts | 172° |
| 2026-04-23 00:16 | 38.10173 | -122.73201 | 17854 ft | 387 kts | 172° |
| 2026-04-23 00:16 | 38.07567 | -122.72428 | 17409 ft | 384 kts | 172° |
| 2026-04-23 00:17 | 38.04963 | -122.71667 | 16884 ft | 383 kts | 171° |
| 2026-04-23 00:17 | 38.02379 | -122.70917 | 16465 ft | 379 kts | 171° |
| 2026-04-23 00:17 | 37.99826 | -122.70178 | 16100 ft | 374 kts | 171° |
| 2026-04-23 00:17 | 37.97290 | -122.69446 | 15673 ft | 372 kts | 171° |
| 2026-04-23 00:18 | 37.94799 | -122.68727 | 15245 ft | 370 kts | 170° |
| 2026-04-23 00:18 | 37.92299 | -122.68005 | 14843 ft | 368 kts | 170° |
| 2026-04-23 00:18 | 37.89871 | -122.67089 | 14328 ft | 365 kts | 155° |
| 2026-04-23 00:18 | 37.87816 | -122.65242 | 13785 ft | 362 kts | 138° |
| 2026-04-23 00:19 | 37.85917 | -122.63108 | 13254 ft | 362 kts | 139° |
| 2026-04-23 00:19 | 37.84020 | -122.61051 | 12903 ft | 357 kts | 140° |
| 2026-04-23 00:19 | 37.82132 | -122.59039 | 12552 ft | 352 kts | 140° |
| 2026-04-23 00:19 | 37.80265 | -122.57062 | 12210 ft | 350 kts | 140° |
| 2026-04-23 00:20 | 37.78406 | -122.55095 | 11878 ft | 348 kts | 140° |
| 2026-04-23 00:20 | 37.76561 | -122.53143 | 11555 ft | 343 kts | 140° |
| 2026-04-23 00:20 | 37.74770 | -122.51249 | 11232 ft | 338 kts | 140° |
| 2026-04-23 00:20 | 37.72998 | -122.49376 | 11065 ft | 328 kts | 140° |
| 2026-04-23 00:21 | 37.71275 | -122.47546 | 11003 ft | 315 kts | 140° |
| 2026-04-23 00:21 | 37.69627 | -122.45791 | 11002 ft | 307 kts | 140° |
| 2026-04-23 00:21 | 37.67998 | -122.44057 | 10997 ft | 306 kts | 140° |
| 2026-04-23 00:21 | 37.66391 | -122.42347 | 10999 ft | 307 kts | 140° |
| 2026-04-23 00:22 | 37.64757 | -122.40610 | 10999 ft | 307 kts | 140° |
| 2026-04-23 00:22 | 37.63286 | -122.39049 | 11001 ft | 307 kts | 140° |
| 2026-04-23 00:22 | 37.61651 | -122.37317 | 10995 ft | 307 kts | 141° |
| 2026-04-23 00:22 | 37.60015 | -122.35894 | 10522 ft | 313 kts | 150° |
| 2026-04-23 00:23 | 37.58092 | -122.34605 | 10137 ft | 313 kts | 154° |
| 2026-04-23 00:23 | 37.56127 | -122.33431 | 9814 ft | 313 kts | 156° |
| 2026-04-23 00:23 | 37.54172 | -122.32311 | 9726 ft | 303 kts | 156° |
| 2026-04-23 00:23 | 37.52287 | -122.31230 | 9588 ft | 293 kts | 156° |
| 2026-04-23 00:24 | 37.51070 | -122.30521 | 9478 ft | 288 kts | 156° |
| 2026-04-23 00:24 | 37.49574 | -122.29638 | 9258 ft | 284 kts | 155° |
| 2026-04-23 00:24 | 37.47797 | -122.28567 | 8956 ft | 282 kts | 154° |
| 2026-04-23 00:25 | 37.46039 | -122.27481 | 8645 ft | 281 kts | 154° |
| 2026-04-23 00:25 | 37.44306 | -122.26374 | 8325 ft | 279 kts | 153° |
| 2026-04-23 00:25 | 37.42584 | -122.25254 | 8041 ft | 277 kts | 152° |
| 2026-04-23 00:25 | 37.40886 | -122.24131 | 7772 ft | 274 kts | 152° |
| 2026-04-23 00:26 | 37.39208 | -122.23009 | 7491 ft | 272 kts | 152° |
| 2026-04-23 00:26 | 37.37552 | -122.21886 | 7232 ft | 269 kts | 151° |
| 2026-04-23 00:26 | 37.36007 | -122.20684 | 6894 ft | 262 kts | 135° |
| 2026-04-23 00:26 | 37.35120 | -122.18732 | 6517 ft | 260 kts | 99° |
| 2026-04-23 00:27 | 37.35234 | -122.16499 | 6203 ft | 257 kts | 71° |
| 2026-04-23 00:27 | 37.35267 | -122.16371 | 6192 ft | 257 kts | 70° |
| 2026-04-23 00:27 | 37.35676 | -122.15287 | 6008 ft | 256 kts | 57° |
| 2026-04-23 00:28 | 37.36895 | -122.13666 | 5638 ft | 258 kts | 33° |
| 2026-04-23 00:28 | 37.38550 | -122.12808 | 5330 ft | 257 kts | 10° |
| 2026-04-23 00:28 | 37.40303 | -122.12928 | 5057 ft | 251 kts | 346° |
| 2026-04-23 00:28 | 37.41975 | -122.13480 | 4809 ft | 256 kts | 346° |
| 2026-04-23 00:29 | 37.43724 | -122.14033 | 4531 ft | 258 kts | 346° |
| 2026-04-23 00:29 | 37.45466 | -122.14583 | 4248 ft | 257 kts | 345° |
| 2026-04-23 00:29 | 37.47186 | -122.15155 | 3975 ft | 255 kts | 345° |
| 2026-04-23 00:29 | 37.48895 | -122.15725 | 3707 ft | 252 kts | 344° |
| 2026-04-23 00:30 | 37.50580 | -122.16285 | 3477 ft | 248 kts | 344° |
| 2026-04-23 00:30 | 37.52226 | -122.16841 | 3224 ft | 240 kts | 341° |
| 2026-04-23 00:30 | 37.53560 | -122.17947 | 3077 ft | 224 kts | 309° |
| 2026-04-23 00:30 | 37.54429 | -122.19491 | 2947 ft | 211 kts | 303° |
| 2026-04-23 00:31 | 37.55190 | -122.21042 | 2663 ft | 205 kts | 298° |
| 2026-04-23 00:31 | 37.55859 | -122.22601 | 2383 ft | 199 kts | 297° |
| 2026-04-23 00:31 | 37.56497 | -122.24126 | 2117 ft | 193 kts | 297° |
| 2026-04-23 00:31 | 37.57095 | -122.25555 | 1844 ft | 179 kts | 296° |
| 2026-04-23 00:32 | 37.57649 | -122.26874 | 1618 ft | 161 kts | 296° |
| 2026-04-23 00:32 | 37.58140 | -122.28049 | 1404 ft | 141 kts | 297° |
| 2026-04-23 00:32 | 37.58571 | -122.29078 | 1252 ft | 131 kts | 296° |
| 2026-04-23 00:32 | 37.58998 | -122.30107 | 1088 ft | 134 kts | 297° |
| 2026-04-23 00:33 | 37.59439 | -122.31148 | 854 ft | 133 kts | 298° |
| 2026-04-23 00:33 | 37.59820 | -122.32063 | 726 ft | 127 kts | 297° |
| 2026-04-23 00:33 | 37.60233 | -122.33042 | 525 ft | 125 kts | 298° |
| 2026-04-23 00:33 | 37.60640 | -122.34017 | 355 ft | 124 kts | 295° |
| 2026-04-23 00:34 | 37.61036 | -122.34968 | 236 ft | 124 kts | 297° |
| 2026-04-23 00:34 | 37.61443 | -122.35924 | 64 ft | 122 kts | 297° |
| 2026-04-23 00:34 | 37.61791 | -122.36773 | 27 ft | 94 kts | 298° |
| 2026-04-23 00:34 | 37.62041 | -122.37359 | 26 ft | 54 kts | 298° |
| 2026-04-23 00:35 | 37.62157 | -122.37645 | 26 ft | 30 kts | 297° |
| 2026-04-23 00:35 | 37.62228 | -122.37892 | 26 ft | 30 kts | 279° |
| 2026-04-23 00:35 | 37.62222 | -122.38133 | 26 ft | 22 kts | 253° |
| 2026-04-23 00:35 | 37.62110 | -122.38250 | 26 ft | 20 kts | 219° |
| 2026-04-23 00:36 | 37.62118 | -122.38393 | 26 ft | 18 kts | 296° |
| 2026-04-23 00:36 | 37.62174 | -122.38530 | 26 ft | 18 kts | 297° |
| 2026-04-23 00:36 | 37.62231 | -122.38667 | 25 ft | 18 kts | 297° |
| 2026-04-23 00:36 | 37.62288 | -122.38804 | 26 ft | 18 kts | 297° |
| 2026-04-23 00:37 | 37.62339 | -122.38939 | 26 ft | 17 kts | 277° |
| 2026-04-23 00:37 | 37.62315 | -122.39075 | 26 ft | 14 kts | 252° |
| 2026-04-23 00:37 | 37.62269 | -122.39181 | 26 ft | 14 kts | 223° |
| 2026-04-23 00:37 | 37.62187 | -122.39242 | 26 ft | 14 kts | 205° |
| 2026-04-23 00:38 | 37.62099 | -122.39296 | 26 ft | 14 kts | 206° |
| 2026-04-23 00:38 | 37.62015 | -122.39357 | 26 ft | 14 kts | 220° |
| 2026-04-23 00:38 | 37.61973 | -122.39467 | 26 ft | 14 kts | 251° |
| 2026-04-23 00:38 | 37.61898 | -122.39534 | 26 ft | 14 kts | 182° |
| 2026-04-23 00:39 | 37.61804 | -122.39503 | 26 ft | 14 kts | 155° |
| 2026-04-23 00:39 | 37.61747 | -122.39406 | 26 ft | 12 kts | 114° |
| 2026-04-23 00:39 | 37.61779 | -122.39339 | 26 ft | 9 kts | 29° |
| 2026-04-23 00:39 | 37.61800 | -122.39324 | 26 ft | 1 kts | 28° |
| 2026-04-23 00:40 | 37.61802 | -122.39324 | 26 ft | 0 kts | 28° |